<?xml version="1.0" encoding="UTF-8" standalone="no" ?>
<gpx xmlns="http://www.topografix.com/GPX/1/1" xmlns:xsi="http://www.w3.org/2001/XMLSchema-instance" xsi:schemaLocation="http://www.topografix.com/GPX/1/1 http://www.topografix.com/GPX/1/1/gpx.xsd" version="1.1" creator="VisuGPX - https://www.visugpx.com">
  <metadata>
    <name>UT53</name>
  </metadata>
  <trk>
    <name><![CDATA[UT53 Étape 3]]></name>
    <extensions>
      <line xmlns="http://www.topografix.com/GPX/gpx_style/0/2">
        <color>FF0000</color>
        <width>4</width>
      </line>
    </extensions>
    <trkseg>
      <trkpt lat="48.95143" lon="7.64186">
        <ele>191.22996949957</ele>
        <time>2021-03-30T12:12:09.000Z</time>
      </trkpt>
      <trkpt lat="48.95143" lon="7.64186">
        <ele>191.22996949957</ele>
        <time>2021-03-30T12:12:09.000Z</time>
      </trkpt>
      <trkpt lat="48.95168" lon="7.64093">
        <ele>192.00406126203</ele>
        <time>2021-03-30T12:12:09.022Z</time>
      </trkpt>
      <trkpt lat="48.95175" lon="7.64056">
        <ele>192.8926933287</ele>
        <time>2021-03-30T12:12:09.052Z</time>
      </trkpt>
      <trkpt lat="48.95179" lon="7.64019">
        <ele>193.59566406784</ele>
        <time>2021-03-30T12:12:09.091Z</time>
      </trkpt>
      <trkpt lat="48.95178" lon="7.63997">
        <ele>194.29659262152</ele>
        <time>2021-03-30T12:12:09.135Z</time>
      </trkpt>
      <trkpt lat="48.95182" lon="7.63976">
        <ele>194.9736694707</ele>
        <time>2021-03-30T12:12:09.183Z</time>
      </trkpt>
      <trkpt lat="48.95184" lon="7.6395">
        <ele>195.68370881291</ele>
        <time>2021-03-30T12:12:09.237Z</time>
      </trkpt>
      <trkpt lat="48.95211" lon="7.6386">
        <ele>196.75446402501</ele>
        <time>2021-03-30T12:12:09.313Z</time>
      </trkpt>
      <trkpt lat="48.95219" lon="7.63833">
        <ele>197.24428894213</ele>
        <time>2021-03-30T12:12:09.396Z</time>
      </trkpt>
      <trkpt lat="48.95218" lon="7.63784">
        <ele>197.68944887952</ele>
        <time>2021-03-30T12:12:09.489Z</time>
      </trkpt>
      <trkpt lat="48.9522" lon="7.63761">
        <ele>197.87418925321</ele>
        <time>2021-03-30T12:12:09.587Z</time>
      </trkpt>
      <trkpt lat="48.95215" lon="7.63726">
        <ele>198.06737590176</ele>
        <time>2021-03-30T12:12:09.693Z</time>
      </trkpt>
      <trkpt lat="48.95204" lon="7.63725">
        <ele>198.39318469406</ele>
        <time>2021-03-30T12:12:09.803Z</time>
      </trkpt>
      <trkpt lat="48.95205" lon="7.63639">
        <ele>198.53909931078</ele>
        <time>2021-03-30T12:12:09.932Z</time>
      </trkpt>
      <trkpt lat="48.95211" lon="7.63619">
        <ele>198.60119130244</ele>
        <time>2021-03-30T12:12:10.065Z</time>
      </trkpt>
      <trkpt lat="48.95211" lon="7.6356">
        <ele>198.70354834639</ele>
        <time>2021-03-30T12:12:10.211Z</time>
      </trkpt>
      <trkpt lat="48.95207" lon="7.6355">
        <ele>198.82956298091</ele>
        <time>2021-03-30T12:12:10.360Z</time>
      </trkpt>
      <trkpt lat="48.95206" lon="7.6354">
        <ele>198.96275061636</ele>
        <time>2021-03-30T12:12:10.511Z</time>
      </trkpt>
      <trkpt lat="48.95213" lon="7.63532">
        <ele>199.07836865328</ele>
        <time>2021-03-30T12:12:10.665Z</time>
      </trkpt>
      <trkpt lat="48.95196" lon="7.63524">
        <ele>199.35132486717</ele>
        <time>2021-03-30T12:12:10.825Z</time>
      </trkpt>
      <trkpt lat="48.95163" lon="7.63501">
        <ele>199.88164065399</ele>
        <time>2021-03-30T12:12:10.997Z</time>
      </trkpt>
      <trkpt lat="48.95227" lon="7.63353">
        <ele>200.73141686334</ele>
        <time>2021-03-30T12:12:11.208Z</time>
      </trkpt>
      <trkpt lat="48.95312" lon="7.6319">
        <ele>201.39120813904</ele>
        <time>2021-03-30T12:12:11.465Z</time>
      </trkpt>
      <trkpt lat="48.95362" lon="7.63112">
        <ele>201.17185847043</ele>
        <time>2021-03-30T12:12:11.746Z</time>
      </trkpt>
      <trkpt lat="48.95408" lon="7.63043">
        <ele>201.60909402263</ele>
        <time>2021-03-30T12:12:12.048Z</time>
      </trkpt>
      <trkpt lat="48.95533" lon="7.62903">
        <ele>202.54433185663</ele>
        <time>2021-03-30T12:12:12.402Z</time>
      </trkpt>
      <trkpt lat="48.95597" lon="7.62822">
        <ele>202.93184404569</ele>
        <time>2021-03-30T12:12:12.784Z</time>
      </trkpt>
      <trkpt lat="48.95633" lon="7.62782">
        <ele>203.9730834181</ele>
        <time>2021-03-30T12:12:13.181Z</time>
      </trkpt>
      <trkpt lat="48.95659" lon="7.62753">
        <ele>204.51089898228</ele>
        <time>2021-03-30T12:12:13.588Z</time>
      </trkpt>
      <trkpt lat="48.95679" lon="7.62746">
        <ele>205.01702599631</ele>
        <time>2021-03-30T12:12:14.002Z</time>
      </trkpt>
      <trkpt lat="48.95717" lon="7.62718">
        <ele>205.97462963208</ele>
        <time>2021-03-30T12:12:14.431Z</time>
      </trkpt>
      <trkpt lat="48.95726" lon="7.62712">
        <ele>206.79647990982</ele>
        <time>2021-03-30T12:12:14.863Z</time>
      </trkpt>
      <trkpt lat="48.95732" lon="7.62708">
        <ele>207.62112555689</ele>
        <time>2021-03-30T12:12:15.297Z</time>
      </trkpt>
      <trkpt lat="48.95745" lon="7.62699">
        <ele>208.35103938323</ele>
        <time>2021-03-30T12:12:15.736Z</time>
      </trkpt>
      <trkpt lat="48.95753" lon="7.62693">
        <ele>209.14226396131</ele>
        <time>2021-03-30T12:12:16.178Z</time>
      </trkpt>
      <trkpt lat="48.95772" lon="7.62677">
        <ele>209.91768850528</ele>
        <time>2021-03-30T12:12:16.627Z</time>
      </trkpt>
      <trkpt lat="48.95783" lon="7.62662">
        <ele>211.00309918356</ele>
        <time>2021-03-30T12:12:17.081Z</time>
      </trkpt>
      <trkpt lat="48.95766" lon="7.62669">
        <ele>212.03736930227</ele>
        <time>2021-03-30T12:12:17.541Z</time>
      </trkpt>
      <trkpt lat="48.95737" lon="7.62685">
        <ele>213.37598920091</ele>
        <time>2021-03-30T12:12:18.011Z</time>
      </trkpt>
      <trkpt lat="48.9573" lon="7.62689">
        <ele>214.65606994562</ele>
        <time>2021-03-30T12:12:18.484Z</time>
      </trkpt>
      <trkpt lat="48.95722" lon="7.62687">
        <ele>216.11645271611</ele>
        <time>2021-03-30T12:12:18.959Z</time>
      </trkpt>
      <trkpt lat="48.95716" lon="7.62676">
        <ele>217.75184355456</ele>
        <time>2021-03-30T12:12:19.438Z</time>
      </trkpt>
      <trkpt lat="48.95712" lon="7.62682">
        <ele>219.28646465385</ele>
        <time>2021-03-30T12:12:19.919Z</time>
      </trkpt>
      <trkpt lat="48.95714" lon="7.62698">
        <ele>220.6140138342</ele>
        <time>2021-03-30T12:12:20.403Z</time>
      </trkpt>
      <trkpt lat="48.95673" lon="7.62702">
        <ele>222.48130899583</ele>
        <time>2021-03-30T12:12:20.901Z</time>
      </trkpt>
      <trkpt lat="48.95635" lon="7.62715">
        <ele>224.43476246537</ele>
        <time>2021-03-30T12:12:21.412Z</time>
      </trkpt>
      <trkpt lat="48.9563" lon="7.62709">
        <ele>226.44172836159</ele>
        <time>2021-03-30T12:12:21.925Z</time>
      </trkpt>
      <trkpt lat="48.95626" lon="7.62698">
        <ele>228.64153622363</ele>
        <time>2021-03-30T12:12:22.441Z</time>
      </trkpt>
      <trkpt lat="48.95628" lon="7.62687">
        <ele>230.83745241134</ele>
        <time>2021-03-30T12:12:22.959Z</time>
      </trkpt>
      <trkpt lat="48.95632" lon="7.62677">
        <ele>233.06228346899</ele>
        <time>2021-03-30T12:12:23.480Z</time>
      </trkpt>
      <trkpt lat="48.95655" lon="7.62652">
        <ele>235.37287530808</ele>
        <time>2021-03-30T12:12:24.010Z</time>
      </trkpt>
      <trkpt lat="48.95643" lon="7.6265">
        <ele>237.68258195734</ele>
        <time>2021-03-30T12:12:24.544Z</time>
      </trkpt>
      <trkpt lat="48.95632" lon="7.62641">
        <ele>240.12296105473</ele>
        <time>2021-03-30T12:12:25.082Z</time>
      </trkpt>
      <trkpt lat="48.95619" lon="7.62621">
        <ele>242.83511357284</ele>
        <time>2021-03-30T12:12:25.627Z</time>
      </trkpt>
      <trkpt lat="48.9561" lon="7.62606">
        <ele>245.41163429777</ele>
        <time>2021-03-30T12:12:26.176Z</time>
      </trkpt>
      <trkpt lat="48.95594" lon="7.62596">
        <ele>247.89436496034</ele>
        <time>2021-03-30T12:12:26.731Z</time>
      </trkpt>
      <trkpt lat="48.95596" lon="7.62584">
        <ele>250.25167077992</ele>
        <time>2021-03-30T12:12:27.288Z</time>
      </trkpt>
      <trkpt lat="48.95602" lon="7.62572">
        <ele>252.49063950187</ele>
        <time>2021-03-30T12:12:27.849Z</time>
      </trkpt>
      <trkpt lat="48.95605" lon="7.62556">
        <ele>254.8181962348</ele>
        <time>2021-03-30T12:12:28.414Z</time>
      </trkpt>
      <trkpt lat="48.95603" lon="7.62549">
        <ele>256.95623930942</ele>
        <time>2021-03-30T12:12:28.980Z</time>
      </trkpt>
      <trkpt lat="48.95596" lon="7.62546">
        <ele>258.96866281227</ele>
        <time>2021-03-30T12:12:29.549Z</time>
      </trkpt>
      <trkpt lat="48.95586" lon="7.62545">
        <ele>260.92355914737</ele>
        <time>2021-03-30T12:12:30.121Z</time>
      </trkpt>
      <trkpt lat="48.95579" lon="7.62538">
        <ele>262.98554785673</ele>
        <time>2021-03-30T12:12:30.696Z</time>
      </trkpt>
      <trkpt lat="48.95571" lon="7.62534">
        <ele>265.0320383304</ele>
        <time>2021-03-30T12:12:31.274Z</time>
      </trkpt>
      <trkpt lat="48.95562" lon="7.62541">
        <ele>266.97958628076</ele>
        <time>2021-03-30T12:12:31.855Z</time>
      </trkpt>
      <trkpt lat="48.95547" lon="7.62547">
        <ele>269.16216625917</ele>
        <time>2021-03-30T12:12:32.441Z</time>
      </trkpt>
      <trkpt lat="48.9554" lon="7.62538">
        <ele>271.5599080246</ele>
        <time>2021-03-30T12:12:33.030Z</time>
      </trkpt>
      <trkpt lat="48.95535" lon="7.62515">
        <ele>274.20721017293</ele>
        <time>2021-03-30T12:12:33.625Z</time>
      </trkpt>
      <trkpt lat="48.95526" lon="7.62482">
        <ele>277.07189138797</ele>
        <time>2021-03-30T12:12:34.228Z</time>
      </trkpt>
      <trkpt lat="48.95529" lon="7.62467">
        <ele>280.02198984264</ele>
        <time>2021-03-30T12:12:34.834Z</time>
      </trkpt>
      <trkpt lat="48.95536" lon="7.62456">
        <ele>283.20684768323</ele>
        <time>2021-03-30T12:12:35.443Z</time>
      </trkpt>
      <trkpt lat="48.95546" lon="7.62447">
        <ele>286.64748503125</ele>
        <time>2021-03-30T12:12:36.056Z</time>
      </trkpt>
      <trkpt lat="48.95537" lon="7.6242">
        <ele>290.48810153985</ele>
        <time>2021-03-30T12:12:36.676Z</time>
      </trkpt>
      <trkpt lat="48.95524" lon="7.62386">
        <ele>294.59189110998</ele>
        <time>2021-03-30T12:12:37.304Z</time>
      </trkpt>
      <trkpt lat="48.95545" lon="7.62406">
        <ele>298.92591272605</ele>
        <time>2021-03-30T12:12:37.941Z</time>
      </trkpt>
      <trkpt lat="48.95618" lon="7.62444">
        <ele>303.96506230297</ele>
        <time>2021-03-30T12:12:38.603Z</time>
      </trkpt>
      <trkpt lat="48.95636" lon="7.62448">
        <ele>308.66501632815</ele>
        <time>2021-03-30T12:12:39.272Z</time>
      </trkpt>
      <trkpt lat="48.95651" lon="7.62447">
        <ele>313.70377200424</ele>
        <time>2021-03-30T12:12:39.945Z</time>
      </trkpt>
      <trkpt lat="48.95697" lon="7.62385">
        <ele>320.28319541231</ele>
        <time>2021-03-30T12:12:40.639Z</time>
      </trkpt>
      <trkpt lat="48.95739" lon="7.62316">
        <ele>326.25073396551</ele>
        <time>2021-03-30T12:12:41.354Z</time>
      </trkpt>
      <trkpt lat="48.95777" lon="7.62244">
        <ele>332.21826618809</ele>
        <time>2021-03-30T12:12:42.089Z</time>
      </trkpt>
      <trkpt lat="48.95788" lon="7.62208">
        <ele>337.81635130389</ele>
        <time>2021-03-30T12:12:42.833Z</time>
      </trkpt>
      <trkpt lat="48.95795" lon="7.62172">
        <ele>343.53810943974</ele>
        <time>2021-03-30T12:12:43.585Z</time>
      </trkpt>
      <trkpt lat="48.9579" lon="7.62039">
        <ele>349.67852804259</ele>
        <time>2021-03-30T12:12:44.366Z</time>
      </trkpt>
      <trkpt lat="48.9576" lon="7.61875">
        <ele>356.28047590031</ele>
        <time>2021-03-30T12:12:45.185Z</time>
      </trkpt>
      <trkpt lat="48.95706" lon="7.61614">
        <ele>363.52158340155</ele>
        <time>2021-03-30T12:12:46.064Z</time>
      </trkpt>
      <trkpt lat="48.95699" lon="7.61595">
        <ele>369.318761998</ele>
        <time>2021-03-30T12:12:46.948Z</time>
      </trkpt>
      <trkpt lat="48.95699" lon="7.61546">
        <ele>375.20518220574</ele>
        <time>2021-03-30T12:12:47.842Z</time>
      </trkpt>
      <trkpt lat="48.95708" lon="7.61516">
        <ele>380.60793175376</ele>
        <time>2021-03-30T12:12:48.744Z</time>
      </trkpt>
      <trkpt lat="48.95725" lon="7.61494">
        <ele>385.76720181879</ele>
        <time>2021-03-30T12:12:49.653Z</time>
      </trkpt>
      <trkpt lat="48.95744" lon="7.61494">
        <ele>390.36286086333</ele>
        <time>2021-03-30T12:12:50.568Z</time>
      </trkpt>
      <trkpt lat="48.95775" lon="7.61509">
        <ele>394.40556537959</ele>
        <time>2021-03-30T12:12:51.494Z</time>
      </trkpt>
      <trkpt lat="48.95835" lon="7.61556">
        <ele>398.83577140789</ele>
        <time>2021-03-30T12:12:52.443Z</time>
      </trkpt>
      <trkpt lat="48.95835" lon="7.61556">
        <ele>403.01012016417</ele>
        <time>2021-03-30T12:12:53.392Z</time>
      </trkpt>
      <trkpt lat="48.9588" lon="7.61579">
        <ele>411.38765720758</ele>
        <time>2021-03-30T12:12:54.356Z</time>
      </trkpt>
      <trkpt lat="48.95926" lon="7.61612">
        <ele>415.49427549683</ele>
        <time>2021-03-30T12:12:55.338Z</time>
      </trkpt>
      <trkpt lat="48.9598" lon="7.61633">
        <ele>419.9061609014</ele>
        <time>2021-03-30T12:12:56.338Z</time>
      </trkpt>
      <trkpt lat="48.95985" lon="7.61635">
        <ele>423.63178037074</ele>
        <time>2021-03-30T12:12:57.340Z</time>
      </trkpt>
      <trkpt lat="48.96004" lon="7.61642">
        <ele>427.41871571315</ele>
        <time>2021-03-30T12:12:58.348Z</time>
      </trkpt>
      <trkpt lat="48.96022" lon="7.61654">
        <ele>431.00894882298</ele>
        <time>2021-03-30T12:12:59.363Z</time>
      </trkpt>
      <trkpt lat="48.96031" lon="7.61655">
        <ele>434.49731290029</ele>
        <time>2021-03-30T12:13:00.381Z</time>
      </trkpt>
      <trkpt lat="48.96041" lon="7.61651">
        <ele>437.96757280898</ele>
        <time>2021-03-30T12:13:01.402Z</time>
      </trkpt>
      <trkpt lat="48.96044" lon="7.61633">
        <ele>441.61115230284</ele>
        <time>2021-03-30T12:13:02.427Z</time>
      </trkpt>
      <trkpt lat="48.96043" lon="7.61615">
        <ele>445.23036394214</ele>
        <time>2021-03-30T12:13:03.456Z</time>
      </trkpt>
      <trkpt lat="48.96039" lon="7.61601">
        <ele>448.78264522426</ele>
        <time>2021-03-30T12:13:04.489Z</time>
      </trkpt>
      <trkpt lat="48.96034" lon="7.61588">
        <ele>452.22843597835</ele>
        <time>2021-03-30T12:13:05.525Z</time>
      </trkpt>
      <trkpt lat="48.96025" lon="7.61576">
        <ele>455.70970460918</ele>
        <time>2021-03-30T12:13:06.565Z</time>
      </trkpt>
      <trkpt lat="48.96015" lon="7.61572">
        <ele>459.00671661624</ele>
        <time>2021-03-30T12:13:07.609Z</time>
      </trkpt>
      <trkpt lat="48.95987" lon="7.61502">
        <ele>462.57851055456</ele>
        <time>2021-03-30T12:13:08.671Z</time>
      </trkpt>
      <trkpt lat="48.95967" lon="7.61458">
        <ele>466.25480613156</ele>
        <time>2021-03-30T12:13:09.744Z</time>
      </trkpt>
      <trkpt lat="48.95945" lon="7.61398">
        <ele>469.86673656249</ele>
        <time>2021-03-30T12:13:10.832Z</time>
      </trkpt>
      <trkpt lat="48.95906" lon="7.61326">
        <ele>473.21693657188</ele>
        <time>2021-03-30T12:13:11.941Z</time>
      </trkpt>
      <trkpt lat="48.95894" lon="7.61291">
        <ele>476.43128320085</ele>
        <time>2021-03-30T12:13:13.058Z</time>
      </trkpt>
      <trkpt lat="48.95885" lon="7.61257">
        <ele>479.385361976</ele>
        <time>2021-03-30T12:13:14.184Z</time>
      </trkpt>
      <trkpt lat="48.95862" lon="7.61215">
        <ele>482.15919444185</ele>
        <time>2021-03-30T12:13:15.322Z</time>
      </trkpt>
      <trkpt lat="48.95807" lon="7.6117">
        <ele>485.03392659597</ele>
        <time>2021-03-30T12:13:16.481Z</time>
      </trkpt>
      <trkpt lat="48.95798" lon="7.61157">
        <ele>487.39213971968</ele>
        <time>2021-03-30T12:13:17.644Z</time>
      </trkpt>
      <trkpt lat="48.95792" lon="7.61141">
        <ele>489.52771816401</ele>
        <time>2021-03-30T12:13:18.811Z</time>
      </trkpt>
      <trkpt lat="48.95789" lon="7.61113">
        <ele>491.45625363543</ele>
        <time>2021-03-30T12:13:19.984Z</time>
      </trkpt>
      <trkpt lat="48.9579" lon="7.61086">
        <ele>493.07119492566</ele>
        <time>2021-03-30T12:13:21.163Z</time>
      </trkpt>
      <trkpt lat="48.95802" lon="7.61025">
        <ele>494.18804515333</ele>
        <time>2021-03-30T12:13:22.356Z</time>
      </trkpt>
      <trkpt lat="48.95801" lon="7.61007">
        <ele>495.26464323726</ele>
        <time>2021-03-30T12:13:23.553Z</time>
      </trkpt>
      <trkpt lat="48.95789" lon="7.60959">
        <ele>496.08209804682</ele>
        <time>2021-03-30T12:13:24.761Z</time>
      </trkpt>
      <trkpt lat="48.9578" lon="7.60945">
        <ele>496.68140008854</ele>
        <time>2021-03-30T12:13:25.973Z</time>
      </trkpt>
      <trkpt lat="48.95773" lon="7.60935">
        <ele>497.02173791391</ele>
        <time>2021-03-30T12:13:27.188Z</time>
      </trkpt>
      <trkpt lat="48.95764" lon="7.60939">
        <ele>497.1024745091</ele>
        <time>2021-03-30T12:13:28.406Z</time>
      </trkpt>
      <trkpt lat="48.95755" lon="7.60938">
        <ele>496.9379150536</ele>
        <time>2021-03-30T12:13:29.628Z</time>
      </trkpt>
      <trkpt lat="48.9575" lon="7.60918">
        <ele>496.50687847108</ele>
        <time>2021-03-30T12:13:30.854Z</time>
      </trkpt>
      <trkpt lat="48.9574" lon="7.60899">
        <ele>495.81382717439</ele>
        <time>2021-03-30T12:13:32.086Z</time>
      </trkpt>
      <trkpt lat="48.9573" lon="7.6089">
        <ele>494.95237596915</ele>
        <time>2021-03-30T12:13:33.321Z</time>
      </trkpt>
      <trkpt lat="48.95712" lon="7.60886">
        <ele>493.90305568082</ele>
        <time>2021-03-30T12:13:34.563Z</time>
      </trkpt>
      <trkpt lat="48.95696" lon="7.609">
        <ele>492.73734282346</ele>
        <time>2021-03-30T12:13:35.811Z</time>
      </trkpt>
      <trkpt lat="48.95687" lon="7.60914">
        <ele>491.37909639714</ele>
        <time>2021-03-30T12:13:37.063Z</time>
      </trkpt>
      <trkpt lat="48.95682" lon="7.60932">
        <ele>489.83276582242</ele>
        <time>2021-03-30T12:13:38.319Z</time>
      </trkpt>
      <trkpt lat="48.95671" lon="7.60984">
        <ele>488.19366258063</ele>
        <time>2021-03-30T12:13:39.587Z</time>
      </trkpt>
      <trkpt lat="48.95644" lon="7.60997">
        <ele>486.25788708623</ele>
        <time>2021-03-30T12:13:40.865Z</time>
      </trkpt>
      <trkpt lat="48.95629" lon="7.60985">
        <ele>484.1285836354</ele>
        <time>2021-03-30T12:13:42.148Z</time>
      </trkpt>
      <trkpt lat="48.95597" lon="7.60952">
        <ele>481.76973965545</ele>
        <time>2021-03-30T12:13:43.444Z</time>
      </trkpt>
      <trkpt lat="48.95562" lon="7.60931">
        <ele>479.45011546873</ele>
        <time>2021-03-30T12:13:44.753Z</time>
      </trkpt>
      <trkpt lat="48.95562" lon="7.60931">
        <ele>477.14472818242</ele>
        <time>2021-03-30T12:13:46.062Z</time>
      </trkpt>
      <trkpt lat="48.95537" lon="7.60903">
        <ele>474.72647084478</ele>
        <time>2021-03-30T12:13:47.381Z</time>
      </trkpt>
      <trkpt lat="48.95517" lon="7.6087">
        <ele>472.31065087651</ele>
        <time>2021-03-30T12:13:48.710Z</time>
      </trkpt>
      <trkpt lat="48.95479" lon="7.60851">
        <ele>469.85847846777</ele>
        <time>2021-03-30T12:13:50.052Z</time>
      </trkpt>
      <trkpt lat="48.95421" lon="7.60861">
        <ele>467.36027336924</ele>
        <time>2021-03-30T12:13:51.414Z</time>
      </trkpt>
      <trkpt lat="48.95371" lon="7.60875">
        <ele>464.79394544532</ele>
        <time>2021-03-30T12:13:52.793Z</time>
      </trkpt>
      <trkpt lat="48.95308" lon="7.60878">
        <ele>462.16728451421</ele>
        <time>2021-03-30T12:13:54.193Z</time>
      </trkpt>
      <trkpt lat="48.95282" lon="7.60854">
        <ele>460.02746598534</ele>
        <time>2021-03-30T12:13:55.603Z</time>
      </trkpt>
      <trkpt lat="48.95246" lon="7.60831">
        <ele>457.91877752156</ele>
        <time>2021-03-30T12:13:57.026Z</time>
      </trkpt>
      <trkpt lat="48.95208" lon="7.608">
        <ele>455.94071329605</ele>
        <time>2021-03-30T12:13:58.463Z</time>
      </trkpt>
      <trkpt lat="48.95186" lon="7.60777">
        <ele>454.27775847292</ele>
        <time>2021-03-30T12:13:59.909Z</time>
      </trkpt>
      <trkpt lat="48.95167" lon="7.60757">
        <ele>452.8807846903</ele>
        <time>2021-03-30T12:14:01.363Z</time>
      </trkpt>
      <trkpt lat="48.95146" lon="7.60744">
        <ele>451.72431187857</ele>
        <time>2021-03-30T12:14:02.825Z</time>
      </trkpt>
      <trkpt lat="48.95124" lon="7.60727">
        <ele>450.89328308367</ele>
        <time>2021-03-30T12:14:04.295Z</time>
      </trkpt>
      <trkpt lat="48.95103" lon="7.60705">
        <ele>450.39802912702</ele>
        <time>2021-03-30T12:14:05.774Z</time>
      </trkpt>
      <trkpt lat="48.95064" lon="7.60649">
        <ele>450.33996598652</ele>
        <time>2021-03-30T12:14:07.270Z</time>
      </trkpt>
      <trkpt lat="48.95038" lon="7.6061">
        <ele>450.51809633617</ele>
        <time>2021-03-30T12:14:08.779Z</time>
      </trkpt>
      <trkpt lat="48.95004" lon="7.60579">
        <ele>450.90521925834</ele>
        <time>2021-03-30T12:14:10.301Z</time>
      </trkpt>
      <trkpt lat="48.94965" lon="7.60552">
        <ele>451.52826218117</ele>
        <time>2021-03-30T12:14:11.837Z</time>
      </trkpt>
      <trkpt lat="48.94935" lon="7.60537">
        <ele>452.55558812161</ele>
        <time>2021-03-30T12:14:13.384Z</time>
      </trkpt>
      <trkpt lat="48.94879" lon="7.60552">
        <ele>454.10429139895</ele>
        <time>2021-03-30T12:14:14.950Z</time>
      </trkpt>
      <trkpt lat="48.94857" lon="7.60561">
        <ele>455.70052789907</ele>
        <time>2021-03-30T12:14:16.523Z</time>
      </trkpt>
      <trkpt lat="48.94834" lon="7.60566">
        <ele>457.71316470236</ele>
        <time>2021-03-30T12:14:18.104Z</time>
      </trkpt>
      <trkpt lat="48.94798" lon="7.60541">
        <ele>460.38064690401</ele>
        <time>2021-03-30T12:14:19.698Z</time>
      </trkpt>
      <trkpt lat="48.94762" lon="7.60514">
        <ele>463.22945731783</ele>
        <time>2021-03-30T12:14:21.306Z</time>
      </trkpt>
      <trkpt lat="48.94729" lon="7.60485">
        <ele>466.14411937441</ele>
        <time>2021-03-30T12:14:22.926Z</time>
      </trkpt>
      <trkpt lat="48.94708" lon="7.60459">
        <ele>469.3091322797</ele>
        <time>2021-03-30T12:14:24.555Z</time>
      </trkpt>
      <trkpt lat="48.94696" lon="7.60436">
        <ele>472.7293233983</ele>
        <time>2021-03-30T12:14:26.191Z</time>
      </trkpt>
      <trkpt lat="48.94695" lon="7.60435">
        <ele>476.09724811377</ele>
        <time>2021-03-30T12:14:27.827Z</time>
      </trkpt>
      <trkpt lat="48.94677" lon="7.60386">
        <ele>479.94192787407</ele>
        <time>2021-03-30T12:14:29.476Z</time>
      </trkpt>
      <trkpt lat="48.94652" lon="7.60327">
        <ele>483.81477399484</ele>
        <time>2021-03-30T12:14:31.140Z</time>
      </trkpt>
      <trkpt lat="48.9462" lon="7.60255">
        <ele>487.84809243423</ele>
        <time>2021-03-30T12:14:32.823Z</time>
      </trkpt>
      <trkpt lat="48.94606" lon="7.60204">
        <ele>491.73540279736</ele>
        <time>2021-03-30T12:14:34.518Z</time>
      </trkpt>
      <trkpt lat="48.94597" lon="7.60161">
        <ele>495.55831118806</ele>
        <time>2021-03-30T12:14:36.223Z</time>
      </trkpt>
      <trkpt lat="48.94597" lon="7.60158">
        <ele>499.22391205205</ele>
        <time>2021-03-30T12:14:37.929Z</time>
      </trkpt>
      <trkpt lat="48.94595" lon="7.60136">
        <ele>502.8896830951</ele>
        <time>2021-03-30T12:14:39.640Z</time>
      </trkpt>
      <trkpt lat="48.946" lon="7.60108">
        <ele>506.63925171836</ele>
        <time>2021-03-30T12:14:41.357Z</time>
      </trkpt>
      <trkpt lat="48.94607" lon="7.60089">
        <ele>510.26807607442</ele>
        <time>2021-03-30T12:14:43.079Z</time>
      </trkpt>
      <trkpt lat="48.94607" lon="7.60087">
        <ele>513.52315530186</ele>
        <time>2021-03-30T12:14:44.801Z</time>
      </trkpt>
      <trkpt lat="48.9462" lon="7.60071">
        <ele>516.81328165282</ele>
        <time>2021-03-30T12:14:46.529Z</time>
      </trkpt>
      <trkpt lat="48.94633" lon="7.60063">
        <ele>519.88263392359</ele>
        <time>2021-03-30T12:14:48.262Z</time>
      </trkpt>
      <trkpt lat="48.94655" lon="7.60049">
        <ele>522.86394321091</ele>
        <time>2021-03-30T12:14:50.002Z</time>
      </trkpt>
      <trkpt lat="48.94677" lon="7.60034">
        <ele>525.59555186387</ele>
        <time>2021-03-30T12:14:51.751Z</time>
      </trkpt>
      <trkpt lat="48.94687" lon="7.60019">
        <ele>527.88012693536</ele>
        <time>2021-03-30T12:14:53.504Z</time>
      </trkpt>
      <trkpt lat="48.94691" lon="7.60013">
        <ele>529.77050732365</ele>
        <time>2021-03-30T12:14:55.259Z</time>
      </trkpt>
      <trkpt lat="48.94698" lon="7.60001">
        <ele>531.28983968227</ele>
        <time>2021-03-30T12:14:57.018Z</time>
      </trkpt>
      <trkpt lat="48.94705" lon="7.59975">
        <ele>532.43089905337</ele>
        <time>2021-03-30T12:14:58.783Z</time>
      </trkpt>
      <trkpt lat="48.94705" lon="7.59973">
        <ele>533.32813792597</ele>
        <time>2021-03-30T12:15:00.548Z</time>
      </trkpt>
      <trkpt lat="48.94705" lon="7.59963">
        <ele>533.89753343962</ele>
        <time>2021-03-30T12:15:02.315Z</time>
      </trkpt>
      <trkpt lat="48.94704" lon="7.59943">
        <ele>534.14147175186</ele>
        <time>2021-03-30T12:15:04.087Z</time>
      </trkpt>
      <trkpt lat="48.94702" lon="7.59917">
        <ele>534.10858246767</ele>
        <time>2021-03-30T12:15:05.865Z</time>
      </trkpt>
      <trkpt lat="48.94701" lon="7.59917">
        <ele>533.79712182616</ele>
        <time>2021-03-30T12:15:07.643Z</time>
      </trkpt>
      <trkpt lat="48.94701" lon="7.59916">
        <ele>533.19958938584</ele>
        <time>2021-03-30T12:15:09.421Z</time>
      </trkpt>
      <trkpt lat="48.94703" lon="7.59898">
        <ele>532.24202015497</ele>
        <time>2021-03-30T12:15:11.203Z</time>
      </trkpt>
      <trkpt lat="48.94709" lon="7.59879">
        <ele>531.02950592032</ele>
        <time>2021-03-30T12:15:12.990Z</time>
      </trkpt>
      <trkpt lat="48.94713" lon="7.59874">
        <ele>529.65824749946</ele>
        <time>2021-03-30T12:15:14.779Z</time>
      </trkpt>
      <trkpt lat="48.94738" lon="7.5984">
        <ele>527.98494220016</ele>
        <time>2021-03-30T12:15:16.579Z</time>
      </trkpt>
      <trkpt lat="48.94783" lon="7.5978">
        <ele>526.05622197529</ele>
        <time>2021-03-30T12:15:18.399Z</time>
      </trkpt>
      <trkpt lat="48.94814" lon="7.5974">
        <ele>524.04743594442</ele>
        <time>2021-03-30T12:15:20.232Z</time>
      </trkpt>
      <trkpt lat="48.94817" lon="7.59735">
        <ele>521.92703973874</ele>
        <time>2021-03-30T12:15:22.067Z</time>
      </trkpt>
      <trkpt lat="48.94818" lon="7.59732">
        <ele>519.69277999483</ele>
        <time>2021-03-30T12:15:23.902Z</time>
      </trkpt>
      <trkpt lat="48.94823" lon="7.59724">
        <ele>517.31472813819</ele>
        <time>2021-03-30T12:15:25.740Z</time>
      </trkpt>
      <trkpt lat="48.94829" lon="7.59702">
        <ele>514.84964227805</ele>
        <time>2021-03-30T12:15:27.583Z</time>
      </trkpt>
      <trkpt lat="48.94832" lon="7.59676">
        <ele>512.32347176956</ele>
        <time>2021-03-30T12:15:29.432Z</time>
      </trkpt>
      <trkpt lat="48.94832" lon="7.59654">
        <ele>509.63876987538</ele>
        <time>2021-03-30T12:15:31.286Z</time>
      </trkpt>
      <trkpt lat="48.94832" lon="7.59652">
        <ele>507.12027472095</ele>
        <time>2021-03-30T12:15:33.140Z</time>
      </trkpt>
      <trkpt lat="48.94829" lon="7.59612">
        <ele>504.18126351447</ele>
        <time>2021-03-30T12:15:35.003Z</time>
      </trkpt>
      <trkpt lat="48.94826" lon="7.59591">
        <ele>501.49529306818</ele>
        <time>2021-03-30T12:15:36.871Z</time>
      </trkpt>
      <trkpt lat="48.94822" lon="7.59554">
        <ele>498.76853821821</ele>
        <time>2021-03-30T12:15:38.747Z</time>
      </trkpt>
      <trkpt lat="48.94821" lon="7.5955">
        <ele>496.45934056802</ele>
        <time>2021-03-30T12:15:40.624Z</time>
      </trkpt>
      <trkpt lat="48.94818" lon="7.59502">
        <ele>493.87932169211</ele>
        <time>2021-03-30T12:15:42.512Z</time>
      </trkpt>
      <trkpt lat="48.94818" lon="7.59502">
        <ele>489.99848998167</ele>
        <time>2021-03-30T12:15:44.400Z</time>
      </trkpt>
      <trkpt lat="48.94818" lon="7.59466">
        <ele>488.13044281597</ele>
        <time>2021-03-30T12:15:46.296Z</time>
      </trkpt>
      <trkpt lat="48.94821" lon="7.59428">
        <ele>486.47057284006</ele>
        <time>2021-03-30T12:15:48.200Z</time>
      </trkpt>
      <trkpt lat="48.94827" lon="7.59393">
        <ele>485.15138722827</ele>
        <time>2021-03-30T12:15:50.112Z</time>
      </trkpt>
      <trkpt lat="48.94827" lon="7.5939">
        <ele>483.88435481587</ele>
        <time>2021-03-30T12:15:52.025Z</time>
      </trkpt>
      <trkpt lat="48.94839" lon="7.59348">
        <ele>482.87858681305</ele>
        <time>2021-03-30T12:15:53.948Z</time>
      </trkpt>
      <trkpt lat="48.94851" lon="7.5932">
        <ele>482.00820197903</ele>
        <time>2021-03-30T12:15:55.878Z</time>
      </trkpt>
      <trkpt lat="48.9487" lon="7.59279">
        <ele>481.18510307332</ele>
        <time>2021-03-30T12:15:57.819Z</time>
      </trkpt>
      <trkpt lat="48.94882" lon="7.59255">
        <ele>480.33039912132</ele>
        <time>2021-03-30T12:15:59.767Z</time>
      </trkpt>
      <trkpt lat="48.94882" lon="7.59254">
        <ele>479.55053360482</ele>
        <time>2021-03-30T12:16:01.715Z</time>
      </trkpt>
      <trkpt lat="48.94896" lon="7.59238">
        <ele>478.80046012555</ele>
        <time>2021-03-30T12:16:03.669Z</time>
      </trkpt>
      <trkpt lat="48.94915" lon="7.59222">
        <ele>478.08254541047</ele>
        <time>2021-03-30T12:16:05.630Z</time>
      </trkpt>
      <trkpt lat="48.9494" lon="7.59204">
        <ele>477.35579282286</ele>
        <time>2021-03-30T12:16:07.600Z</time>
      </trkpt>
      <trkpt lat="48.94954" lon="7.5919">
        <ele>476.5630360417</ele>
        <time>2021-03-30T12:16:09.576Z</time>
      </trkpt>
      <trkpt lat="48.94955" lon="7.5919">
        <ele>475.90197182142</ele>
        <time>2021-03-30T12:16:11.552Z</time>
      </trkpt>
      <trkpt lat="48.94965" lon="7.59168">
        <ele>475.1252955288</ele>
        <time>2021-03-30T12:16:13.534Z</time>
      </trkpt>
      <trkpt lat="48.94969" lon="7.59138">
        <ele>474.37879583043</ele>
        <time>2021-03-30T12:16:15.523Z</time>
      </trkpt>
      <trkpt lat="48.94972" lon="7.59099">
        <ele>473.65734250685</ele>
        <time>2021-03-30T12:16:17.520Z</time>
      </trkpt>
      <trkpt lat="48.9497" lon="7.59071">
        <ele>472.92072382006</ele>
        <time>2021-03-30T12:16:19.523Z</time>
      </trkpt>
      <trkpt lat="48.94968" lon="7.59045">
        <ele>472.08726501594</ele>
        <time>2021-03-30T12:16:21.532Z</time>
      </trkpt>
      <trkpt lat="48.94964" lon="7.5901">
        <ele>471.21924739131</ele>
        <time>2021-03-30T12:16:23.549Z</time>
      </trkpt>
      <trkpt lat="48.94961" lon="7.58996">
        <ele>470.36504726334</ele>
        <time>2021-03-30T12:16:25.569Z</time>
      </trkpt>
      <trkpt lat="48.9496" lon="7.58991">
        <ele>469.49713134022</ele>
        <time>2021-03-30T12:16:27.590Z</time>
      </trkpt>
      <trkpt lat="48.9496" lon="7.58974">
        <ele>468.49453085884</ele>
        <time>2021-03-30T12:16:29.615Z</time>
      </trkpt>
      <trkpt lat="48.9496" lon="7.58973">
        <ele>467.59380968379</ele>
        <time>2021-03-30T12:16:31.640Z</time>
      </trkpt>
      <trkpt lat="48.94963" lon="7.58963">
        <ele>466.57701805322</ele>
        <time>2021-03-30T12:16:33.668Z</time>
      </trkpt>
      <trkpt lat="48.94974" lon="7.58952">
        <ele>465.48887868704</ele>
        <time>2021-03-30T12:16:35.700Z</time>
      </trkpt>
      <trkpt lat="48.9499" lon="7.58944">
        <ele>464.46044473891</ele>
        <time>2021-03-30T12:16:37.738Z</time>
      </trkpt>
      <trkpt lat="48.9501" lon="7.58941">
        <ele>463.43566229983</ele>
        <time>2021-03-30T12:16:39.782Z</time>
      </trkpt>
      <trkpt lat="48.95011" lon="7.5894">
        <ele>462.43245966196</ele>
        <time>2021-03-30T12:16:41.827Z</time>
      </trkpt>
      <trkpt lat="48.95019" lon="7.58932">
        <ele>461.37514468959</ele>
        <time>2021-03-30T12:16:43.875Z</time>
      </trkpt>
      <trkpt lat="48.95039" lon="7.58909">
        <ele>460.21367251974</ele>
        <time>2021-03-30T12:16:45.931Z</time>
      </trkpt>
      <trkpt lat="48.9504" lon="7.58909">
        <ele>459.19538765674</ele>
        <time>2021-03-30T12:16:47.988Z</time>
      </trkpt>
      <trkpt lat="48.95059" lon="7.58895">
        <ele>458.07054675154</ele>
        <time>2021-03-30T12:16:50.052Z</time>
      </trkpt>
      <trkpt lat="48.95096" lon="7.58876">
        <ele>456.98904946621</ele>
        <time>2021-03-30T12:16:52.129Z</time>
      </trkpt>
      <trkpt lat="48.95137" lon="7.58854">
        <ele>455.88357621053</ele>
        <time>2021-03-30T12:16:54.220Z</time>
      </trkpt>
      <trkpt lat="48.9518" lon="7.58833">
        <ele>454.8395315564</ele>
        <time>2021-03-30T12:16:56.326Z</time>
      </trkpt>
      <trkpt lat="48.95242" lon="7.588">
        <ele>453.71342974972</ele>
        <time>2021-03-30T12:16:58.454Z</time>
      </trkpt>
      <trkpt lat="48.95251" lon="7.58788">
        <ele>452.79183377652</ele>
        <time>2021-03-30T12:17:00.586Z</time>
      </trkpt>
      <trkpt lat="48.95264" lon="7.58772">
        <ele>451.90718962858</ele>
        <time>2021-03-30T12:17:02.724Z</time>
      </trkpt>
      <trkpt lat="48.95298" lon="7.58744">
        <ele>451.02605058259</ele>
        <time>2021-03-30T12:17:04.875Z</time>
      </trkpt>
      <trkpt lat="48.95302" lon="7.5874">
        <ele>450.12676374104</ele>
        <time>2021-03-30T12:17:07.027Z</time>
      </trkpt>
      <trkpt lat="48.95326" lon="7.58713">
        <ele>449.118071284</ele>
        <time>2021-03-30T12:17:09.189Z</time>
      </trkpt>
      <trkpt lat="48.95353" lon="7.5868">
        <ele>448.23298185068</ele>
        <time>2021-03-30T12:17:11.363Z</time>
      </trkpt>
      <trkpt lat="48.95391" lon="7.58626">
        <ele>447.30086070611</ele>
        <time>2021-03-30T12:17:13.554Z</time>
      </trkpt>
      <trkpt lat="48.95412" lon="7.58581">
        <ele>446.48152694248</ele>
        <time>2021-03-30T12:17:15.757Z</time>
      </trkpt>
      <trkpt lat="48.95423" lon="7.58552">
        <ele>445.75204699219</ele>
        <time>2021-03-30T12:17:17.968Z</time>
      </trkpt>
      <trkpt lat="48.95415" lon="7.58545">
        <ele>444.97639762584</ele>
        <time>2021-03-30T12:17:20.182Z</time>
      </trkpt>
      <trkpt lat="48.95429" lon="7.58491">
        <ele>444.42159490447</ele>
        <time>2021-03-30T12:17:22.409Z</time>
      </trkpt>
      <trkpt lat="48.95445" lon="7.58444">
        <ele>444.02807739357</ele>
        <time>2021-03-30T12:17:24.647Z</time>
      </trkpt>
      <trkpt lat="48.95444" lon="7.58411">
        <ele>443.47784244369</ele>
        <time>2021-03-30T12:17:26.892Z</time>
      </trkpt>
      <trkpt lat="48.95433" lon="7.58287">
        <ele>443.31542234436</ele>
        <time>2021-03-30T12:17:29.165Z</time>
      </trkpt>
      <trkpt lat="48.95435" lon="7.58256">
        <ele>442.78430987942</ele>
        <time>2021-03-30T12:17:31.445Z</time>
      </trkpt>
      <trkpt lat="48.95433" lon="7.58211">
        <ele>442.10155691896</ele>
        <time>2021-03-30T12:17:33.735Z</time>
      </trkpt>
      <trkpt lat="48.9542" lon="7.58139">
        <ele>441.33296140892</ele>
        <time>2021-03-30T12:17:36.041Z</time>
      </trkpt>
      <trkpt lat="48.95398" lon="7.58029">
        <ele>440.33883250046</ele>
        <time>2021-03-30T12:17:38.372Z</time>
      </trkpt>
      <trkpt lat="48.95394" lon="7.57975">
        <ele>439.46621411737</ele>
        <time>2021-03-30T12:17:40.715Z</time>
      </trkpt>
      <trkpt lat="48.95386" lon="7.5793">
        <ele>438.7707564049</ele>
        <time>2021-03-30T12:17:43.069Z</time>
      </trkpt>
      <trkpt lat="48.95381" lon="7.5789">
        <ele>438.15383689861</ele>
        <time>2021-03-30T12:17:45.432Z</time>
      </trkpt>
      <trkpt lat="48.95374" lon="7.57856">
        <ele>437.77450344899</ele>
        <time>2021-03-30T12:17:47.802Z</time>
      </trkpt>
      <trkpt lat="48.95356" lon="7.57816">
        <ele>437.66388733658</ele>
        <time>2021-03-30T12:17:50.183Z</time>
      </trkpt>
      <trkpt lat="48.95342" lon="7.57796">
        <ele>437.5767225419</ele>
        <time>2021-03-30T12:17:52.570Z</time>
      </trkpt>
      <trkpt lat="48.95331" lon="7.57786">
        <ele>437.80372906911</ele>
        <time>2021-03-30T12:17:54.962Z</time>
      </trkpt>
      <trkpt lat="48.95325" lon="7.57773">
        <ele>438.26105595618</ele>
        <time>2021-03-30T12:17:57.357Z</time>
      </trkpt>
      <trkpt lat="48.95341" lon="7.57738">
        <ele>438.93384310196</ele>
        <time>2021-03-30T12:17:59.762Z</time>
      </trkpt>
      <trkpt lat="48.95326" lon="7.57714">
        <ele>439.80662803389</ele>
        <time>2021-03-30T12:18:02.174Z</time>
      </trkpt>
      <trkpt lat="48.95348" lon="7.57658">
        <ele>441.32716519954</ele>
        <time>2021-03-30T12:18:04.600Z</time>
      </trkpt>
      <trkpt lat="48.95365" lon="7.576">
        <ele>443.49004634585</ele>
        <time>2021-03-30T12:18:07.040Z</time>
      </trkpt>
      <trkpt lat="48.95371" lon="7.57577">
        <ele>445.48372314743</ele>
        <time>2021-03-30T12:18:09.485Z</time>
      </trkpt>
      <trkpt lat="48.95372" lon="7.57571">
        <ele>447.46813955517</ele>
        <time>2021-03-30T12:18:11.932Z</time>
      </trkpt>
      <trkpt lat="48.95373" lon="7.57538">
        <ele>449.95701757488</ele>
        <time>2021-03-30T12:18:14.386Z</time>
      </trkpt>
      <trkpt lat="48.95372" lon="7.57499">
        <ele>452.6162613477</ele>
        <time>2021-03-30T12:18:16.848Z</time>
      </trkpt>
      <trkpt lat="48.9537" lon="7.57457">
        <ele>455.26253354826</ele>
        <time>2021-03-30T12:18:19.320Z</time>
      </trkpt>
      <trkpt lat="48.9537" lon="7.57452">
        <ele>457.52322664415</ele>
        <time>2021-03-30T12:18:21.793Z</time>
      </trkpt>
      <trkpt lat="48.95373" lon="7.57417">
        <ele>460.02011103273</ele>
        <time>2021-03-30T12:18:24.274Z</time>
      </trkpt>
      <trkpt lat="48.95374" lon="7.57409">
        <ele>462.19902142435</ele>
        <time>2021-03-30T12:18:26.756Z</time>
      </trkpt>
      <trkpt lat="48.95386" lon="7.57335">
        <ele>464.623256968</ele>
        <time>2021-03-30T12:18:29.255Z</time>
      </trkpt>
      <trkpt lat="48.95405" lon="7.57238">
        <ele>466.34347949562</ele>
        <time>2021-03-30T12:18:31.776Z</time>
      </trkpt>
      <trkpt lat="48.95429" lon="7.57143">
        <ele>468.0068091124</ele>
        <time>2021-03-30T12:18:34.320Z</time>
      </trkpt>
      <trkpt lat="48.95429" lon="7.57141">
        <ele>469.70343661265</ele>
        <time>2021-03-30T12:18:36.864Z</time>
      </trkpt>
      <trkpt lat="48.95431" lon="7.57129">
        <ele>471.22449031827</ele>
        <time>2021-03-30T12:18:39.411Z</time>
      </trkpt>
      <trkpt lat="48.95436" lon="7.57097">
        <ele>472.53136018762</ele>
        <time>2021-03-30T12:18:41.965Z</time>
      </trkpt>
      <trkpt lat="48.95436" lon="7.57096">
        <ele>473.76748173478</ele>
        <time>2021-03-30T12:18:44.519Z</time>
      </trkpt>
      <trkpt lat="48.95436" lon="7.57096">
        <ele>474.8342365775</ele>
        <time>2021-03-30T12:18:47.073Z</time>
      </trkpt>
      <trkpt lat="48.95436" lon="7.57096">
        <ele>475.72449171955</ele>
        <time>2021-03-30T12:18:49.627Z</time>
      </trkpt>
      <trkpt lat="48.95436" lon="7.57096">
        <ele>476.43211966723</ele>
        <time>2021-03-30T12:18:52.181Z</time>
      </trkpt>
      <trkpt lat="48.95436" lon="7.57096">
        <ele>476.95173252359</ele>
        <time>2021-03-30T12:18:54.735Z</time>
      </trkpt>
      <trkpt lat="48.95436" lon="7.57096">
        <ele>477.27852378972</ele>
        <time>2021-03-30T12:18:57.289Z</time>
      </trkpt>
      <trkpt lat="48.95436" lon="7.57096">
        <ele>477.40816864042</ele>
        <time>2021-03-30T12:18:59.843Z</time>
      </trkpt>
      <trkpt lat="48.95436" lon="7.57096">
        <ele>477.3367831359</ele>
        <time>2021-03-30T12:19:02.397Z</time>
      </trkpt>
      <trkpt lat="48.95436" lon="7.57096">
        <ele>477.06093686561</ele>
        <time>2021-03-30T12:19:04.951Z</time>
      </trkpt>
      <trkpt lat="48.95436" lon="7.57094">
        <ele>476.57471036213</ele>
        <time>2021-03-30T12:19:07.506Z</time>
      </trkpt>
      <trkpt lat="48.95436" lon="7.57096">
        <ele>475.88483272055</ele>
        <time>2021-03-30T12:19:10.061Z</time>
      </trkpt>
      <trkpt lat="48.9545" lon="7.57021">
        <ele>474.65972730985</ele>
        <time>2021-03-30T12:19:12.633Z</time>
      </trkpt>
      <trkpt lat="48.95458" lon="7.56973">
        <ele>473.31104729932</ele>
        <time>2021-03-30T12:19:15.216Z</time>
      </trkpt>
      <trkpt lat="48.95486" lon="7.56924">
        <ele>471.81196983542</ele>
        <time>2021-03-30T12:19:17.813Z</time>
      </trkpt>
      <trkpt lat="48.95489" lon="7.56915">
        <ele>470.25622286395</ele>
        <time>2021-03-30T12:19:20.412Z</time>
      </trkpt>
      <trkpt lat="48.95492" lon="7.56909">
        <ele>468.48514649391</ele>
        <time>2021-03-30T12:19:23.013Z</time>
      </trkpt>
      <trkpt lat="48.95494" lon="7.56902">
        <ele>466.49095044107</ele>
        <time>2021-03-30T12:19:25.616Z</time>
      </trkpt>
      <trkpt lat="48.95497" lon="7.56895">
        <ele>464.28748093962</ele>
        <time>2021-03-30T12:19:28.221Z</time>
      </trkpt>
      <trkpt lat="48.955" lon="7.56888">
        <ele>461.91543691264</ele>
        <time>2021-03-30T12:19:30.827Z</time>
      </trkpt>
      <trkpt lat="48.95502" lon="7.5688">
        <ele>459.34614312558</ele>
        <time>2021-03-30T12:19:33.435Z</time>
      </trkpt>
      <trkpt lat="48.95505" lon="7.56872">
        <ele>456.56156952545</ele>
        <time>2021-03-30T12:19:36.045Z</time>
      </trkpt>
      <trkpt lat="48.95507" lon="7.56865">
        <ele>453.53233880643</ele>
        <time>2021-03-30T12:19:38.657Z</time>
      </trkpt>
      <trkpt lat="48.9551" lon="7.56859">
        <ele>450.28250959531</ele>
        <time>2021-03-30T12:19:41.271Z</time>
      </trkpt>
      <trkpt lat="48.95512" lon="7.56852">
        <ele>446.78563394049</ele>
        <time>2021-03-30T12:19:43.886Z</time>
      </trkpt>
      <trkpt lat="48.95513" lon="7.56849">
        <ele>443.04997583085</ele>
        <time>2021-03-30T12:19:46.502Z</time>
      </trkpt>
      <trkpt lat="48.95515" lon="7.56827">
        <ele>439.06967872262</ele>
        <time>2021-03-30T12:19:49.123Z</time>
      </trkpt>
      <trkpt lat="48.95504" lon="7.56752">
        <ele>434.69226890835</ele>
        <time>2021-03-30T12:19:51.761Z</time>
      </trkpt>
      <trkpt lat="48.95467" lon="7.5666">
        <ele>429.58150699539</ele>
        <time>2021-03-30T12:19:54.422Z</time>
      </trkpt>
      <trkpt lat="48.9543" lon="7.56573">
        <ele>424.67456979062</ele>
        <time>2021-03-30T12:19:57.106Z</time>
      </trkpt>
      <trkpt lat="48.9539" lon="7.56495">
        <ele>419.09304482477</ele>
        <time>2021-03-30T12:19:59.812Z</time>
      </trkpt>
      <trkpt lat="48.95336" lon="7.5641">
        <ele>413.6022793615</ele>
        <time>2021-03-30T12:20:02.544Z</time>
      </trkpt>
      <trkpt lat="48.95291" lon="7.5635">
        <ele>408.35095768911</ele>
        <time>2021-03-30T12:20:05.296Z</time>
      </trkpt>
      <trkpt lat="48.95288" lon="7.56347">
        <ele>403.67534659838</ele>
        <time>2021-03-30T12:20:08.049Z</time>
      </trkpt>
      <trkpt lat="48.95251" lon="7.56312">
        <ele>398.68769348345</ele>
        <time>2021-03-30T12:20:10.817Z</time>
      </trkpt>
      <trkpt lat="48.95243" lon="7.563">
        <ele>394.11175317122</ele>
        <time>2021-03-30T12:20:13.588Z</time>
      </trkpt>
      <trkpt lat="48.95199" lon="7.56182">
        <ele>389.05712553959</ele>
        <time>2021-03-30T12:20:16.389Z</time>
      </trkpt>
      <trkpt lat="48.95199" lon="7.56182">
        <ele>384.75201539581</ele>
        <time>2021-03-30T12:20:19.190Z</time>
      </trkpt>
      <trkpt lat="48.95199" lon="7.56181">
        <ele>380.55815373983</ele>
        <time>2021-03-30T12:20:21.991Z</time>
      </trkpt>
      <trkpt lat="48.95199" lon="7.56181">
        <ele>376.47124914012</ele>
        <time>2021-03-30T12:20:24.792Z</time>
      </trkpt>
      <trkpt lat="48.95199" lon="7.56181">
        <ele>372.4825701081</ele>
        <time>2021-03-30T12:20:27.593Z</time>
      </trkpt>
      <trkpt lat="48.95199" lon="7.56181">
        <ele>368.57991877923</ele>
        <time>2021-03-30T12:20:30.394Z</time>
      </trkpt>
      <trkpt lat="48.95198" lon="7.56182">
        <ele>364.74925364612</ele>
        <time>2021-03-30T12:20:33.196Z</time>
      </trkpt>
      <trkpt lat="48.95199" lon="7.56181">
        <ele>360.97282798657</ele>
        <time>2021-03-30T12:20:35.998Z</time>
      </trkpt>
      <trkpt lat="48.95199" lon="7.56168">
        <ele>357.13216842443</ele>
        <time>2021-03-30T12:20:38.803Z</time>
      </trkpt>
      <trkpt lat="48.95176" lon="7.56141">
        <ele>353.1173585575</ele>
        <time>2021-03-30T12:20:41.618Z</time>
      </trkpt>
      <trkpt lat="48.95151" lon="7.56105">
        <ele>349.03073059257</ele>
        <time>2021-03-30T12:20:44.444Z</time>
      </trkpt>
      <trkpt lat="48.95151" lon="7.56105">
        <ele>341.65488695518</ele>
        <time>2021-03-30T12:20:47.270Z</time>
      </trkpt>
      <trkpt lat="48.9515" lon="7.56135">
        <ele>338.29114594913</ele>
        <time>2021-03-30T12:20:50.103Z</time>
      </trkpt>
      <trkpt lat="48.95102" lon="7.56072">
        <ele>334.03115361278</ele>
        <time>2021-03-30T12:20:52.957Z</time>
      </trkpt>
      <trkpt lat="48.95088" lon="7.56026">
        <ele>329.69195245441</ele>
        <time>2021-03-30T12:20:55.822Z</time>
      </trkpt>
      <trkpt lat="48.9507" lon="7.55982">
        <ele>325.55448622786</ele>
        <time>2021-03-30T12:20:58.699Z</time>
      </trkpt>
      <trkpt lat="48.95039" lon="7.55916">
        <ele>321.44797047042</ele>
        <time>2021-03-30T12:21:01.593Z</time>
      </trkpt>
      <trkpt lat="48.94983" lon="7.5581">
        <ele>317.19832020545</ele>
        <time>2021-03-30T12:21:04.517Z</time>
      </trkpt>
      <trkpt lat="48.94942" lon="7.55727">
        <ele>313.03461251673</ele>
        <time>2021-03-30T12:21:07.464Z</time>
      </trkpt>
      <trkpt lat="48.94933" lon="7.55683">
        <ele>309.11697743016</ele>
        <time>2021-03-30T12:21:10.421Z</time>
      </trkpt>
      <trkpt lat="48.94925" lon="7.55633">
        <ele>305.30603310119</ele>
        <time>2021-03-30T12:21:13.390Z</time>
      </trkpt>
      <trkpt lat="48.9492" lon="7.55604">
        <ele>301.65796958491</ele>
        <time>2021-03-30T12:21:16.365Z</time>
      </trkpt>
      <trkpt lat="48.94915" lon="7.55573">
        <ele>297.99746886854</ele>
        <time>2021-03-30T12:21:19.347Z</time>
      </trkpt>
      <trkpt lat="48.94907" lon="7.55499">
        <ele>294.09265344589</ele>
        <time>2021-03-30T12:21:22.346Z</time>
      </trkpt>
      <trkpt lat="48.94903" lon="7.55426">
        <ele>290.37249024497</ele>
        <time>2021-03-30T12:21:25.361Z</time>
      </trkpt>
      <trkpt lat="48.94903" lon="7.55424">
        <ele>287.00098674481</ele>
        <time>2021-03-30T12:21:28.376Z</time>
      </trkpt>
      <trkpt lat="48.94908" lon="7.55356">
        <ele>283.50833016199</ele>
        <time>2021-03-30T12:21:31.406Z</time>
      </trkpt>
      <trkpt lat="48.94912" lon="7.55301">
        <ele>280.09158264017</ele>
        <time>2021-03-30T12:21:34.448Z</time>
      </trkpt>
      <trkpt lat="48.94922" lon="7.55244">
        <ele>276.65790076833</ele>
        <time>2021-03-30T12:21:37.503Z</time>
      </trkpt>
      <trkpt lat="48.94928" lon="7.55215">
        <ele>273.4391934698</ele>
        <time>2021-03-30T12:21:40.565Z</time>
      </trkpt>
      <trkpt lat="48.94928" lon="7.55214">
        <ele>270.39263489627</ele>
        <time>2021-03-30T12:21:43.627Z</time>
      </trkpt>
      <trkpt lat="48.94931" lon="7.55183">
        <ele>267.27331767225</ele>
        <time>2021-03-30T12:21:46.696Z</time>
      </trkpt>
      <trkpt lat="48.94933" lon="7.55156">
        <ele>264.194309143</ele>
        <time>2021-03-30T12:21:49.771Z</time>
      </trkpt>
      <trkpt lat="48.94932" lon="7.55146">
        <ele>261.22121093642</ele>
        <time>2021-03-30T12:21:52.848Z</time>
      </trkpt>
      <trkpt lat="48.9493" lon="7.55125">
        <ele>258.195763</ele>
        <time>2021-03-30T12:21:55.930Z</time>
      </trkpt>
      <trkpt lat="48.94925" lon="7.55101">
        <ele>255.20570159532</ele>
        <time>2021-03-30T12:21:59.017Z</time>
      </trkpt>
      <trkpt lat="48.94923" lon="7.55099">
        <ele>252.4529646341</ele>
        <time>2021-03-30T12:22:02.105Z</time>
      </trkpt>
      <trkpt lat="48.94909" lon="7.55074">
        <ele>249.55604494898</ele>
        <time>2021-03-30T12:22:05.200Z</time>
      </trkpt>
      <trkpt lat="48.94889" lon="7.5504">
        <ele>246.55810134601</ele>
        <time>2021-03-30T12:22:08.306Z</time>
      </trkpt>
      <trkpt lat="48.94877" lon="7.55022">
        <ele>243.78014415634</ele>
        <time>2021-03-30T12:22:11.417Z</time>
      </trkpt>
      <trkpt lat="48.9488" lon="7.55022">
        <ele>241.20424943126</ele>
        <time>2021-03-30T12:22:14.529Z</time>
      </trkpt>
      <trkpt lat="48.94897" lon="7.55022">
        <ele>238.53378897539</ele>
        <time>2021-03-30T12:22:17.647Z</time>
      </trkpt>
      <trkpt lat="48.94911" lon="7.55019">
        <ele>235.90070872395</ele>
        <time>2021-03-30T12:22:20.770Z</time>
      </trkpt>
      <trkpt lat="48.94928" lon="7.55016">
        <ele>233.30220681544</ele>
        <time>2021-03-30T12:22:23.898Z</time>
      </trkpt>
      <trkpt lat="48.9494" lon="7.55013">
        <ele>230.82637313441</ele>
        <time>2021-03-30T12:22:27.030Z</time>
      </trkpt>
      <trkpt lat="48.94942" lon="7.55008">
        <ele>228.48501355413</ele>
        <time>2021-03-30T12:22:30.164Z</time>
      </trkpt>
      <trkpt lat="48.94943" lon="7.55007">
        <ele>226.30742523539</ele>
        <time>2021-03-30T12:22:33.298Z</time>
      </trkpt>
      <trkpt lat="48.9494" lon="7.55002">
        <ele>224.2099916642</ele>
        <time>2021-03-30T12:22:36.433Z</time>
      </trkpt>
      <trkpt lat="48.94932" lon="7.54989">
        <ele>222.04763089876</ele>
        <time>2021-03-30T12:22:39.572Z</time>
      </trkpt>
      <trkpt lat="48.94922" lon="7.54975">
        <ele>219.9765088259</ele>
        <time>2021-03-30T12:22:42.716Z</time>
      </trkpt>
      <trkpt lat="48.94907" lon="7.54963">
        <ele>218.05440831278</ele>
        <time>2021-03-30T12:22:45.866Z</time>
      </trkpt>
      <trkpt lat="48.94889" lon="7.54948">
        <ele>216.19739102494</ele>
        <time>2021-03-30T12:22:49.022Z</time>
      </trkpt>
      <trkpt lat="48.94892" lon="7.54948">
        <ele>214.62305183363</ele>
        <time>2021-03-30T12:22:52.179Z</time>
      </trkpt>
      <trkpt lat="48.94912" lon="7.54946">
        <ele>213.06796170214</ele>
        <time>2021-03-30T12:22:55.343Z</time>
      </trkpt>
      <trkpt lat="48.94947" lon="7.5495">
        <ele>211.62575051895</ele>
        <time>2021-03-30T12:22:58.519Z</time>
      </trkpt>
      <trkpt lat="48.94966" lon="7.54943">
        <ele>210.07464362754</ele>
        <time>2021-03-30T12:23:01.701Z</time>
      </trkpt>
      <trkpt lat="48.94964" lon="7.54941">
        <ele>208.95131302329</ele>
        <time>2021-03-30T12:23:04.884Z</time>
      </trkpt>
      <trkpt lat="48.94963" lon="7.5494">
        <ele>207.94739521983</ele>
        <time>2021-03-30T12:23:08.068Z</time>
      </trkpt>
      <trkpt lat="48.94959" lon="7.54937">
        <ele>207.05303784611</ele>
        <time>2021-03-30T12:23:11.253Z</time>
      </trkpt>
      <trkpt lat="48.94956" lon="7.54936">
        <ele>206.28437969556</ele>
        <time>2021-03-30T12:23:14.439Z</time>
      </trkpt>
      <trkpt lat="48.94953" lon="7.54934">
        <ele>205.59615563927</ele>
        <time>2021-03-30T12:23:17.626Z</time>
      </trkpt>
      <trkpt lat="48.9495" lon="7.54933">
        <ele>205.01358649783</ele>
        <time>2021-03-30T12:23:20.814Z</time>
      </trkpt>
      <trkpt lat="48.94946" lon="7.54932">
        <ele>204.5229971035</ele>
        <time>2021-03-30T12:23:24.004Z</time>
      </trkpt>
      <trkpt lat="48.94943" lon="7.54931">
        <ele>204.09404207958</ele>
        <time>2021-03-30T12:23:27.195Z</time>
      </trkpt>
      <trkpt lat="48.94941" lon="7.54929">
        <ele>203.70218431565</ele>
        <time>2021-03-30T12:23:30.386Z</time>
      </trkpt>
      <trkpt lat="48.94938" lon="7.54928">
        <ele>203.37326736298</ele>
        <time>2021-03-30T12:23:33.578Z</time>
      </trkpt>
      <trkpt lat="48.94936" lon="7.54926">
        <ele>203.0737827399</ele>
        <time>2021-03-30T12:23:36.771Z</time>
      </trkpt>
      <trkpt lat="48.94934" lon="7.54924">
        <ele>202.81886477767</ele>
        <time>2021-03-30T12:23:39.965Z</time>
      </trkpt>
      <trkpt lat="48.94933" lon="7.54924">
        <ele>202.63289954966</ele>
        <time>2021-03-30T12:23:43.159Z</time>
      </trkpt>
      <trkpt lat="48.94932" lon="7.54921">
        <ele>202.43285061545</ele>
        <time>2021-03-30T12:23:46.354Z</time>
      </trkpt>
      <trkpt lat="48.94931" lon="7.54918">
        <ele>202.26488533132</ele>
        <time>2021-03-30T12:23:49.550Z</time>
      </trkpt>
      <trkpt lat="48.9493" lon="7.54914">
        <ele>202.13915734902</ele>
        <time>2021-03-30T12:23:52.747Z</time>
      </trkpt>
      <trkpt lat="48.94929" lon="7.54907">
        <ele>202.0212241968</ele>
        <time>2021-03-30T12:23:55.945Z</time>
      </trkpt>
      <trkpt lat="48.94932" lon="7.54906">
        <ele>201.9699113078</ele>
        <time>2021-03-30T12:23:59.144Z</time>
      </trkpt>
      <trkpt lat="48.94937" lon="7.54904">
        <ele>201.93615090308</ele>
        <time>2021-03-30T12:24:02.345Z</time>
      </trkpt>
      <trkpt lat="48.94942" lon="7.54901">
        <ele>201.92802690473</ele>
        <time>2021-03-30T12:24:05.548Z</time>
      </trkpt>
      <trkpt lat="48.94947" lon="7.54898">
        <ele>201.96703921081</ele>
        <time>2021-03-30T12:24:08.753Z</time>
      </trkpt>
      <trkpt lat="48.94953" lon="7.54893">
        <ele>202.02167600913</ele>
        <time>2021-03-30T12:24:11.960Z</time>
      </trkpt>
      <trkpt lat="48.94958" lon="7.54887">
        <ele>202.0920087117</ele>
        <time>2021-03-30T12:24:15.169Z</time>
      </trkpt>
      <trkpt lat="48.9496" lon="7.54884">
        <ele>202.19882025651</ele>
        <time>2021-03-30T12:24:18.379Z</time>
      </trkpt>
      <trkpt lat="48.94964" lon="7.54879">
        <ele>202.3251954337</ele>
        <time>2021-03-30T12:24:21.591Z</time>
      </trkpt>
      <trkpt lat="48.94969" lon="7.54869">
        <ele>202.44738517172</ele>
        <time>2021-03-30T12:24:24.805Z</time>
      </trkpt>
      <trkpt lat="48.94974" lon="7.54858">
        <ele>202.65305576222</ele>
        <time>2021-03-30T12:24:28.022Z</time>
      </trkpt>
      <trkpt lat="48.94974" lon="7.54857">
        <ele>202.87917992596</ele>
        <time>2021-03-30T12:24:31.240Z</time>
      </trkpt>
      <trkpt lat="48.94977" lon="7.5485">
        <ele>203.16055878689</ele>
        <time>2021-03-30T12:24:34.459Z</time>
      </trkpt>
      <trkpt lat="48.9498" lon="7.5484">
        <ele>203.46417302016</ele>
        <time>2021-03-30T12:24:37.681Z</time>
      </trkpt>
      <trkpt lat="48.94983" lon="7.54828">
        <ele>203.79986759991</ele>
        <time>2021-03-30T12:24:40.906Z</time>
      </trkpt>
      <trkpt lat="48.94984" lon="7.54818">
        <ele>204.13916344116</ele>
        <time>2021-03-30T12:24:44.133Z</time>
      </trkpt>
      <trkpt lat="48.94986" lon="7.54808">
        <ele>204.50159497417</ele>
        <time>2021-03-30T12:24:47.362Z</time>
      </trkpt>
      <trkpt lat="48.94987" lon="7.54794">
        <ele>204.86124693008</ele>
        <time>2021-03-30T12:24:50.594Z</time>
      </trkpt>
      <trkpt lat="48.94987" lon="7.54793">
        <ele>205.19669315823</ele>
        <time>2021-03-30T12:24:53.827Z</time>
      </trkpt>
      <trkpt lat="48.94988" lon="7.54783">
        <ele>205.52981295613</ele>
        <time>2021-03-30T12:24:57.062Z</time>
      </trkpt>
      <trkpt lat="48.94987" lon="7.54767">
        <ele>205.84151457029</ele>
        <time>2021-03-30T12:25:00.300Z</time>
      </trkpt>
      <trkpt lat="48.94987" lon="7.54754">
        <ele>206.16210958436</ele>
        <time>2021-03-30T12:25:03.541Z</time>
      </trkpt>
      <trkpt lat="48.94987" lon="7.54736">
        <ele>206.57210573388</ele>
        <time>2021-03-30T12:25:06.786Z</time>
      </trkpt>
      <trkpt lat="48.94987" lon="7.54719">
        <ele>206.98916994053</ele>
        <time>2021-03-30T12:25:10.035Z</time>
      </trkpt>
      <trkpt lat="48.94987" lon="7.54705">
        <ele>207.31719324665</ele>
        <time>2021-03-30T12:25:13.287Z</time>
      </trkpt>
      <trkpt lat="48.94988" lon="7.54693">
        <ele>207.59387839287</ele>
        <time>2021-03-30T12:25:16.542Z</time>
      </trkpt>
      <trkpt lat="48.94989" lon="7.54681">
        <ele>207.85083003873</ele>
        <time>2021-03-30T12:25:19.799Z</time>
      </trkpt>
      <trkpt lat="48.94991" lon="7.54668">
        <ele>208.08446887121</ele>
        <time>2021-03-30T12:25:23.059Z</time>
      </trkpt>
      <trkpt lat="48.94993" lon="7.54659">
        <ele>208.33420868051</ele>
        <time>2021-03-30T12:25:26.321Z</time>
      </trkpt>
      <trkpt lat="48.94993" lon="7.5465">
        <ele>208.5595868954</ele>
        <time>2021-03-30T12:25:29.585Z</time>
      </trkpt>
      <trkpt lat="48.94994" lon="7.54644">
        <ele>208.74771954576</ele>
        <time>2021-03-30T12:25:32.851Z</time>
      </trkpt>
      <trkpt lat="48.94994" lon="7.5464">
        <ele>208.89915419476</ele>
        <time>2021-03-30T12:25:36.117Z</time>
      </trkpt>
      <trkpt lat="48.94994" lon="7.54637">
        <ele>209.0144108003</ele>
        <time>2021-03-30T12:25:39.384Z</time>
      </trkpt>
      <trkpt lat="48.94993" lon="7.54624">
        <ele>209.10629990595</ele>
        <time>2021-03-30T12:25:42.654Z</time>
      </trkpt>
      <trkpt lat="48.94992" lon="7.54613">
        <ele>209.15942894746</ele>
        <time>2021-03-30T12:25:45.926Z</time>
      </trkpt>
      <trkpt lat="48.94991" lon="7.54599">
        <ele>209.17963980228</ele>
        <time>2021-03-30T12:25:49.202Z</time>
      </trkpt>
      <trkpt lat="48.9499" lon="7.54584">
        <ele>209.16329818852</ele>
        <time>2021-03-30T12:25:52.481Z</time>
      </trkpt>
      <trkpt lat="48.94989" lon="7.54573">
        <ele>209.07411031749</ele>
        <time>2021-03-30T12:25:55.762Z</time>
      </trkpt>
      <trkpt lat="48.94988" lon="7.54558">
        <ele>208.94284010689</ele>
        <time>2021-03-30T12:25:59.047Z</time>
      </trkpt>
      <trkpt lat="48.94987" lon="7.54542">
        <ele>208.7752941534</ele>
        <time>2021-03-30T12:26:02.335Z</time>
      </trkpt>
      <trkpt lat="48.94987" lon="7.54532">
        <ele>208.58190156079</ele>
        <time>2021-03-30T12:26:05.625Z</time>
      </trkpt>
      <trkpt lat="48.94987" lon="7.54522">
        <ele>208.35841899355</ele>
        <time>2021-03-30T12:26:08.918Z</time>
      </trkpt>
      <trkpt lat="48.94987" lon="7.54511">
        <ele>208.10645205611</ele>
        <time>2021-03-30T12:26:12.213Z</time>
      </trkpt>
      <trkpt lat="48.94988" lon="7.54506">
        <ele>207.83752811373</ele>
        <time>2021-03-30T12:26:15.509Z</time>
      </trkpt>
      <trkpt lat="48.94988" lon="7.545">
        <ele>207.54680332925</ele>
        <time>2021-03-30T12:26:18.806Z</time>
      </trkpt>
      <trkpt lat="48.9499" lon="7.54492">
        <ele>207.21944759311</ele>
        <time>2021-03-30T12:26:22.105Z</time>
      </trkpt>
      <trkpt lat="48.94992" lon="7.54482">
        <ele>206.8733229877</ele>
        <time>2021-03-30T12:26:25.407Z</time>
      </trkpt>
      <trkpt lat="48.94994" lon="7.54472">
        <ele>206.51994072075</ele>
        <time>2021-03-30T12:26:28.711Z</time>
      </trkpt>
      <trkpt lat="48.95003" lon="7.54449">
        <ele>206.11013165836</ele>
        <time>2021-03-30T12:26:32.021Z</time>
      </trkpt>
      <trkpt lat="48.95012" lon="7.54426">
        <ele>205.70320154931</ele>
        <time>2021-03-30T12:26:35.337Z</time>
      </trkpt>
      <trkpt lat="48.9501" lon="7.54427">
        <ele>205.40099537916</ele>
        <time>2021-03-30T12:26:38.653Z</time>
      </trkpt>
      <trkpt lat="48.95006" lon="7.54425">
        <ele>205.1019243954</ele>
        <time>2021-03-30T12:26:41.971Z</time>
      </trkpt>
      <trkpt lat="48.95004" lon="7.54424">
        <ele>204.81635380272</ele>
        <time>2021-03-30T12:26:45.289Z</time>
      </trkpt>
      <trkpt lat="48.94999" lon="7.54421">
        <ele>204.54235806889</ele>
        <time>2021-03-30T12:26:48.609Z</time>
      </trkpt>
      <trkpt lat="48.94997" lon="7.5442">
        <ele>204.28627928999</ele>
        <time>2021-03-30T12:26:51.930Z</time>
      </trkpt>
      <trkpt lat="48.94995" lon="7.5442">
        <ele>204.04904732771</ele>
        <time>2021-03-30T12:26:55.252Z</time>
      </trkpt>
      <trkpt lat="48.94993" lon="7.54421">
        <ele>203.83031820764</ele>
        <time>2021-03-30T12:26:58.574Z</time>
      </trkpt>
      <trkpt lat="48.94992" lon="7.54423">
        <ele>203.62786054718</ele>
        <time>2021-03-30T12:27:01.897Z</time>
      </trkpt>
      <trkpt lat="48.9499" lon="7.54426">
        <ele>203.44312603178</ele>
        <time>2021-03-30T12:27:05.221Z</time>
      </trkpt>
      <trkpt lat="48.94989" lon="7.54428">
        <ele>203.26492991035</ele>
        <time>2021-03-30T12:27:08.545Z</time>
      </trkpt>
      <trkpt lat="48.94987" lon="7.54429">
        <ele>203.09426844626</ele>
        <time>2021-03-30T12:27:11.870Z</time>
      </trkpt>
      <trkpt lat="48.94984" lon="7.54429">
        <ele>202.92937190157</ele>
        <time>2021-03-30T12:27:15.196Z</time>
      </trkpt>
      <trkpt lat="48.94981" lon="7.54428">
        <ele>202.76715143606</ele>
        <time>2021-03-30T12:27:18.523Z</time>
      </trkpt>
      <trkpt lat="48.94977" lon="7.54428">
        <ele>202.61421732634</ele>
        <time>2021-03-30T12:27:21.851Z</time>
      </trkpt>
      <trkpt lat="48.94975" lon="7.54426">
        <ele>202.45475277423</ele>
        <time>2021-03-30T12:27:25.180Z</time>
      </trkpt>
      <trkpt lat="48.94973" lon="7.54424">
        <ele>202.29719351387</ele>
        <time>2021-03-30T12:27:28.510Z</time>
      </trkpt>
      <trkpt lat="48.94973" lon="7.54423">
        <ele>202.14137615957</ele>
        <time>2021-03-30T12:27:31.840Z</time>
      </trkpt>
      <trkpt lat="48.94972" lon="7.54421">
        <ele>201.98401588191</ele>
        <time>2021-03-30T12:27:35.171Z</time>
      </trkpt>
      <trkpt lat="48.94972" lon="7.54417">
        <ele>201.81934887045</ele>
        <time>2021-03-30T12:27:38.503Z</time>
      </trkpt>
      <trkpt lat="48.94973" lon="7.54415">
        <ele>201.66286716919</ele>
        <time>2021-03-30T12:27:41.835Z</time>
      </trkpt>
      <trkpt lat="48.94976" lon="7.54413">
        <ele>201.50470664462</ele>
        <time>2021-03-30T12:27:45.168Z</time>
      </trkpt>
      <trkpt lat="48.94978" lon="7.54409">
        <ele>201.34572517748</ele>
        <time>2021-03-30T12:27:48.502Z</time>
      </trkpt>
      <trkpt lat="48.9498" lon="7.54406">
        <ele>201.19192494237</ele>
        <time>2021-03-30T12:27:51.837Z</time>
      </trkpt>
      <trkpt lat="48.94981" lon="7.54404">
        <ele>201.04617089671</ele>
        <time>2021-03-30T12:27:55.173Z</time>
      </trkpt>
      <trkpt lat="48.94982" lon="7.54403">
        <ele>200.9088416505</ele>
        <time>2021-03-30T12:27:58.509Z</time>
      </trkpt>
      <trkpt lat="48.9498" lon="7.54396">
        <ele>200.77169016837</ele>
        <time>2021-03-30T12:28:01.847Z</time>
      </trkpt>
      <trkpt lat="48.9498" lon="7.54392">
        <ele>200.64869342524</ele>
        <time>2021-03-30T12:28:05.186Z</time>
      </trkpt>
      <trkpt lat="48.9498" lon="7.54388">
        <ele>200.53899046164</ele>
        <time>2021-03-30T12:28:08.526Z</time>
      </trkpt>
      <trkpt lat="48.94981" lon="7.54384">
        <ele>200.44395844172</ele>
        <time>2021-03-30T12:28:11.867Z</time>
      </trkpt>
      <trkpt lat="48.94982" lon="7.54379">
        <ele>200.36581976886</ele>
        <time>2021-03-30T12:28:15.209Z</time>
      </trkpt>
      <trkpt lat="48.94982" lon="7.54374">
        <ele>200.31267210248</ele>
        <time>2021-03-30T12:28:18.552Z</time>
      </trkpt>
      <trkpt lat="48.94982" lon="7.5437">
        <ele>200.29034194555</ele>
        <time>2021-03-30T12:28:21.896Z</time>
      </trkpt>
      <trkpt lat="48.94982" lon="7.54367">
        <ele>200.29655261449</ele>
        <time>2021-03-30T12:28:25.240Z</time>
      </trkpt>
      <trkpt lat="48.94982" lon="7.54366">
        <ele>200.33478381717</ele>
        <time>2021-03-30T12:28:28.585Z</time>
      </trkpt>
      <trkpt lat="48.94981" lon="7.54362">
        <ele>200.40427622207</ele>
        <time>2021-03-30T12:28:31.931Z</time>
      </trkpt>
      <trkpt lat="48.94979" lon="7.54358">
        <ele>200.50959154929</ele>
        <time>2021-03-30T12:28:35.278Z</time>
      </trkpt>
      <trkpt lat="48.94976" lon="7.54351">
        <ele>200.65096671221</ele>
        <time>2021-03-30T12:28:38.627Z</time>
      </trkpt>
      <trkpt lat="48.94975" lon="7.54347">
        <ele>200.83451557871</ele>
        <time>2021-03-30T12:28:41.976Z</time>
      </trkpt>
      <trkpt lat="48.94975" lon="7.54343">
        <ele>201.05980994864</ele>
        <time>2021-03-30T12:28:45.326Z</time>
      </trkpt>
      <trkpt lat="48.94973" lon="7.54325">
        <ele>201.3617951915</ele>
        <time>2021-03-30T12:28:48.680Z</time>
      </trkpt>
      <trkpt lat="48.94973" lon="7.54318">
        <ele>201.70446266427</ele>
        <time>2021-03-30T12:28:52.036Z</time>
      </trkpt>
      <trkpt lat="48.94973" lon="7.54314">
        <ele>202.07764590695</ele>
        <time>2021-03-30T12:28:55.393Z</time>
      </trkpt>
      <trkpt lat="48.94973" lon="7.54312">
        <ele>202.48490873506</ele>
        <time>2021-03-30T12:28:58.750Z</time>
      </trkpt>
      <trkpt lat="48.94974" lon="7.54307">
        <ele>202.94586102198</ele>
        <time>2021-03-30T12:29:02.108Z</time>
      </trkpt>
      <trkpt lat="48.94975" lon="7.54303">
        <ele>203.44260221669</ele>
        <time>2021-03-30T12:29:05.467Z</time>
      </trkpt>
      <trkpt lat="48.94976" lon="7.54299">
        <ele>203.97725833219</ele>
        <time>2021-03-30T12:29:08.827Z</time>
      </trkpt>
      <trkpt lat="48.94977" lon="7.54294">
        <ele>204.55143117857</ele>
        <time>2021-03-30T12:29:12.188Z</time>
      </trkpt>
      <trkpt lat="48.94978" lon="7.54288">
        <ele>205.16201880225</ele>
        <time>2021-03-30T12:29:15.551Z</time>
      </trkpt>
      <trkpt lat="48.94978" lon="7.54283">
        <ele>205.76721089669</ele>
        <time>2021-03-30T12:29:18.915Z</time>
      </trkpt>
      <trkpt lat="48.94978" lon="7.54277">
        <ele>206.3943611423</ele>
        <time>2021-03-30T12:29:22.280Z</time>
      </trkpt>
      <trkpt lat="48.94967" lon="7.54234">
        <ele>207.20483672355</ele>
        <time>2021-03-30T12:29:25.655Z</time>
      </trkpt>
      <trkpt lat="48.94965" lon="7.54226">
        <ele>207.95512183464</ele>
        <time>2021-03-30T12:29:29.032Z</time>
      </trkpt>
      <trkpt lat="48.94964" lon="7.54219">
        <ele>208.69692237041</ele>
        <time>2021-03-30T12:29:32.411Z</time>
      </trkpt>
      <trkpt lat="48.94963" lon="7.54215">
        <ele>209.41324969105</ele>
        <time>2021-03-30T12:29:35.791Z</time>
      </trkpt>
      <trkpt lat="48.94963" lon="7.5421">
        <ele>210.12441130592</ele>
        <time>2021-03-30T12:29:39.172Z</time>
      </trkpt>
      <trkpt lat="48.94963" lon="7.54206">
        <ele>210.81401367208</ele>
        <time>2021-03-30T12:29:42.554Z</time>
      </trkpt>
      <trkpt lat="48.94964" lon="7.54201">
        <ele>211.48649878825</ele>
        <time>2021-03-30T12:29:45.937Z</time>
      </trkpt>
      <trkpt lat="48.94968" lon="7.54179">
        <ele>212.21268869276</ele>
        <time>2021-03-30T12:29:49.325Z</time>
      </trkpt>
      <trkpt lat="48.94974" lon="7.54162">
        <ele>212.83426400927</ele>
        <time>2021-03-30T12:29:52.717Z</time>
      </trkpt>
      <trkpt lat="48.94975" lon="7.54158">
        <ele>213.39372481844</ele>
        <time>2021-03-30T12:29:56.110Z</time>
      </trkpt>
      <trkpt lat="48.94977" lon="7.54153">
        <ele>213.91093879469</ele>
        <time>2021-03-30T12:29:59.504Z</time>
      </trkpt>
      <trkpt lat="48.9498" lon="7.54148">
        <ele>214.37793552567</ele>
        <time>2021-03-30T12:30:02.900Z</time>
      </trkpt>
      <trkpt lat="48.94985" lon="7.54142">
        <ele>214.78963360124</ele>
        <time>2021-03-30T12:30:06.298Z</time>
      </trkpt>
      <trkpt lat="48.94987" lon="7.54138">
        <ele>215.17314081709</ele>
        <time>2021-03-30T12:30:09.697Z</time>
      </trkpt>
      <trkpt lat="48.94989" lon="7.54134">
        <ele>215.51216697753</ele>
        <time>2021-03-30T12:30:13.097Z</time>
      </trkpt>
      <trkpt lat="48.94993" lon="7.54131">
        <ele>215.80806021126</ele>
        <time>2021-03-30T12:30:16.499Z</time>
      </trkpt>
      <trkpt lat="48.94997" lon="7.54127">
        <ele>216.07842517831</ele>
        <time>2021-03-30T12:30:19.902Z</time>
      </trkpt>
      <trkpt lat="48.95002" lon="7.54124">
        <ele>216.29020246841</ele>
        <time>2021-03-30T12:30:23.307Z</time>
      </trkpt>
      <trkpt lat="48.95007" lon="7.54122">
        <ele>216.44826576788</ele>
        <time>2021-03-30T12:30:26.714Z</time>
      </trkpt>
      <trkpt lat="48.95012" lon="7.5412">
        <ele>216.56410890319</ele>
        <time>2021-03-30T12:30:30.122Z</time>
      </trkpt>
      <trkpt lat="48.95016" lon="7.54118">
        <ele>216.64336716052</ele>
        <time>2021-03-30T12:30:33.532Z</time>
      </trkpt>
      <trkpt lat="48.95021" lon="7.54116">
        <ele>216.6795743665</ele>
        <time>2021-03-30T12:30:36.944Z</time>
      </trkpt>
      <trkpt lat="48.95026" lon="7.54114">
        <ele>216.67513766309</ele>
        <time>2021-03-30T12:30:40.357Z</time>
      </trkpt>
      <trkpt lat="48.95031" lon="7.54113">
        <ele>216.61916422282</ele>
        <time>2021-03-30T12:30:43.772Z</time>
      </trkpt>
      <trkpt lat="48.95037" lon="7.54111">
        <ele>216.53514096074</ele>
        <time>2021-03-30T12:30:47.189Z</time>
      </trkpt>
      <trkpt lat="48.95042" lon="7.54109">
        <ele>216.42768584719</ele>
        <time>2021-03-30T12:30:50.608Z</time>
      </trkpt>
      <trkpt lat="48.95048" lon="7.54108">
        <ele>216.27672239159</ele>
        <time>2021-03-30T12:30:54.029Z</time>
      </trkpt>
      <trkpt lat="48.95052" lon="7.54105">
        <ele>216.13860570961</ele>
        <time>2021-03-30T12:30:57.451Z</time>
      </trkpt>
      <trkpt lat="48.95057" lon="7.54103">
        <ele>215.96150552284</ele>
        <time>2021-03-30T12:31:00.875Z</time>
      </trkpt>
      <trkpt lat="48.95062" lon="7.541">
        <ele>215.77451337435</ele>
        <time>2021-03-30T12:31:04.301Z</time>
      </trkpt>
      <trkpt lat="48.95066" lon="7.54098">
        <ele>215.56286060724</ele>
        <time>2021-03-30T12:31:07.728Z</time>
      </trkpt>
      <trkpt lat="48.95071" lon="7.54096">
        <ele>215.3281315452</ele>
        <time>2021-03-30T12:31:11.157Z</time>
      </trkpt>
      <trkpt lat="48.95076" lon="7.54095">
        <ele>215.06644810963</ele>
        <time>2021-03-30T12:31:14.588Z</time>
      </trkpt>
      <trkpt lat="48.95081" lon="7.54094">
        <ele>214.79040186182</ele>
        <time>2021-03-30T12:31:18.020Z</time>
      </trkpt>
      <trkpt lat="48.95086" lon="7.54093">
        <ele>214.50157780506</ele>
        <time>2021-03-30T12:31:21.454Z</time>
      </trkpt>
      <trkpt lat="48.9509" lon="7.54093">
        <ele>214.19598570274</ele>
        <time>2021-03-30T12:31:24.889Z</time>
      </trkpt>
      <trkpt lat="48.95095" lon="7.54092">
        <ele>213.88596266376</ele>
        <time>2021-03-30T12:31:28.326Z</time>
      </trkpt>
      <trkpt lat="48.95101" lon="7.54091">
        <ele>213.56176159419</ele>
        <time>2021-03-30T12:31:31.765Z</time>
      </trkpt>
      <trkpt lat="48.95105" lon="7.5409">
        <ele>213.24082881273</ele>
        <time>2021-03-30T12:31:35.205Z</time>
      </trkpt>
      <trkpt lat="48.9511" lon="7.54089">
        <ele>212.92588484796</ele>
        <time>2021-03-30T12:31:38.647Z</time>
      </trkpt>
      <trkpt lat="48.95112" lon="7.54089">
        <ele>212.60642133808</ele>
        <time>2021-03-30T12:31:42.090Z</time>
      </trkpt>
      <trkpt lat="48.95115" lon="7.54088">
        <ele>212.26978007222</ele>
        <time>2021-03-30T12:31:45.534Z</time>
      </trkpt>
      <trkpt lat="48.95119" lon="7.54086">
        <ele>211.92286596114</ele>
        <time>2021-03-30T12:31:48.979Z</time>
      </trkpt>
      <trkpt lat="48.95143" lon="7.54072">
        <ele>211.581408758</ele>
        <time>2021-03-30T12:31:52.433Z</time>
      </trkpt>
      <trkpt lat="48.95168" lon="7.54054">
        <ele>211.29425669898</ele>
        <time>2021-03-30T12:31:55.896Z</time>
      </trkpt>
      <trkpt lat="48.95181" lon="7.54044">
        <ele>211.03111517519</ele>
        <time>2021-03-30T12:31:59.364Z</time>
      </trkpt>
      <trkpt lat="48.95195" lon="7.54038">
        <ele>210.69396232131</ele>
        <time>2021-03-30T12:32:02.837Z</time>
      </trkpt>
      <trkpt lat="48.95205" lon="7.54034">
        <ele>210.3092125138</ele>
        <time>2021-03-30T12:32:06.313Z</time>
      </trkpt>
      <trkpt lat="48.95208" lon="7.54031">
        <ele>209.9594175882</ele>
        <time>2021-03-30T12:32:09.790Z</time>
      </trkpt>
      <trkpt lat="48.95221" lon="7.54021">
        <ele>209.53829467488</ele>
        <time>2021-03-30T12:32:13.272Z</time>
      </trkpt>
      <trkpt lat="48.95236" lon="7.54005">
        <ele>208.99336262585</ele>
        <time>2021-03-30T12:32:16.760Z</time>
      </trkpt>
      <trkpt lat="48.9526" lon="7.53975">
        <ele>208.40725690112</ele>
        <time>2021-03-30T12:32:20.259Z</time>
      </trkpt>
      <trkpt lat="48.95277" lon="7.53948">
        <ele>207.97321624412</ele>
        <time>2021-03-30T12:32:23.766Z</time>
      </trkpt>
      <trkpt lat="48.95286" lon="7.53931">
        <ele>207.76078046338</ele>
        <time>2021-03-30T12:32:27.278Z</time>
      </trkpt>
      <trkpt lat="48.95285" lon="7.5393">
        <ele>207.52597654672</ele>
        <time>2021-03-30T12:32:30.790Z</time>
      </trkpt>
      <trkpt lat="48.95282" lon="7.53927">
        <ele>207.33950412498</ele>
        <time>2021-03-30T12:32:34.303Z</time>
      </trkpt>
      <trkpt lat="48.95279" lon="7.53923">
        <ele>207.19714333862</ele>
        <time>2021-03-30T12:32:37.818Z</time>
      </trkpt>
      <trkpt lat="48.95276" lon="7.53918">
        <ele>207.10279092791</ele>
        <time>2021-03-30T12:32:41.334Z</time>
      </trkpt>
      <trkpt lat="48.95274" lon="7.53913">
        <ele>207.02737287704</ele>
        <time>2021-03-30T12:32:44.851Z</time>
      </trkpt>
      <trkpt lat="48.95272" lon="7.5391">
        <ele>207.00807282458</ele>
        <time>2021-03-30T12:32:48.369Z</time>
      </trkpt>
      <trkpt lat="48.9527" lon="7.53904">
        <ele>207.02662020145</ele>
        <time>2021-03-30T12:32:51.889Z</time>
      </trkpt>
      <trkpt lat="48.95268" lon="7.53898">
        <ele>207.07811951865</ele>
        <time>2021-03-30T12:32:55.410Z</time>
      </trkpt>
      <trkpt lat="48.95267" lon="7.53894">
        <ele>207.14701482369</ele>
        <time>2021-03-30T12:32:58.932Z</time>
      </trkpt>
      <trkpt lat="48.95266" lon="7.53892">
        <ele>207.24083881495</ele>
        <time>2021-03-30T12:33:02.455Z</time>
      </trkpt>
      <trkpt lat="48.9526" lon="7.53888">
        <ele>207.41332451115</ele>
        <time>2021-03-30T12:33:05.980Z</time>
      </trkpt>
      <trkpt lat="48.95254" lon="7.53881">
        <ele>207.60605389991</ele>
        <time>2021-03-30T12:33:09.507Z</time>
      </trkpt>
      <trkpt lat="48.95249" lon="7.53873">
        <ele>207.80237737266</ele>
        <time>2021-03-30T12:33:13.037Z</time>
      </trkpt>
      <trkpt lat="48.95244" lon="7.53864">
        <ele>208.00945757657</ele>
        <time>2021-03-30T12:33:16.569Z</time>
      </trkpt>
      <trkpt lat="48.95244" lon="7.53863">
        <ele>208.16353420955</ele>
        <time>2021-03-30T12:33:20.102Z</time>
      </trkpt>
      <trkpt lat="48.95242" lon="7.53856">
        <ele>208.34936711396</ele>
        <time>2021-03-30T12:33:23.636Z</time>
      </trkpt>
      <trkpt lat="48.95238" lon="7.53846">
        <ele>208.56426073913</ele>
        <time>2021-03-30T12:33:27.173Z</time>
      </trkpt>
      <trkpt lat="48.95235" lon="7.53835">
        <ele>208.7741277337</ele>
        <time>2021-03-30T12:33:30.713Z</time>
      </trkpt>
      <trkpt lat="48.95233" lon="7.5383">
        <ele>208.96738883824</ele>
        <time>2021-03-30T12:33:34.254Z</time>
      </trkpt>
      <trkpt lat="48.9523" lon="7.53817">
        <ele>209.16812619945</ele>
        <time>2021-03-30T12:33:37.798Z</time>
      </trkpt>
      <trkpt lat="48.95228" lon="7.53809">
        <ele>209.37858614429</ele>
        <time>2021-03-30T12:33:41.344Z</time>
      </trkpt>
      <trkpt lat="48.95227" lon="7.53803">
        <ele>209.60023290861</ele>
        <time>2021-03-30T12:33:44.891Z</time>
      </trkpt>
      <trkpt lat="48.95226" lon="7.53798">
        <ele>209.84945229753</ele>
        <time>2021-03-30T12:33:48.439Z</time>
      </trkpt>
      <trkpt lat="48.95225" lon="7.53791">
        <ele>210.12998655098</ele>
        <time>2021-03-30T12:33:51.989Z</time>
      </trkpt>
      <trkpt lat="48.95223" lon="7.53776">
        <ele>210.46253993128</ele>
        <time>2021-03-30T12:33:55.542Z</time>
      </trkpt>
      <trkpt lat="48.95221" lon="7.5377">
        <ele>210.85579204002</ele>
        <time>2021-03-30T12:33:59.097Z</time>
      </trkpt>
      <trkpt lat="48.9522" lon="7.53764">
        <ele>211.30144869878</ele>
        <time>2021-03-30T12:34:02.653Z</time>
      </trkpt>
      <trkpt lat="48.95219" lon="7.53757">
        <ele>211.81942770251</ele>
        <time>2021-03-30T12:34:06.211Z</time>
      </trkpt>
      <trkpt lat="48.95217" lon="7.53751">
        <ele>212.42987643586</ele>
        <time>2021-03-30T12:34:09.770Z</time>
      </trkpt>
      <trkpt lat="48.95215" lon="7.53745">
        <ele>213.15681188644</ele>
        <time>2021-03-30T12:34:13.331Z</time>
      </trkpt>
      <trkpt lat="48.95212" lon="7.53732">
        <ele>214.02676683146</ele>
        <time>2021-03-30T12:34:16.895Z</time>
      </trkpt>
      <trkpt lat="48.9521" lon="7.53726">
        <ele>214.97094395571</ele>
        <time>2021-03-30T12:34:20.460Z</time>
      </trkpt>
      <trkpt lat="48.95208" lon="7.53721">
        <ele>216.03283785682</ele>
        <time>2021-03-30T12:34:24.026Z</time>
      </trkpt>
      <trkpt lat="48.95206" lon="7.53716">
        <ele>217.22553319841</ele>
        <time>2021-03-30T12:34:27.594Z</time>
      </trkpt>
      <trkpt lat="48.95206" lon="7.53715">
        <ele>218.52190481021</ele>
        <time>2021-03-30T12:34:31.162Z</time>
      </trkpt>
      <trkpt lat="48.95205" lon="7.53713">
        <ele>219.97909077794</ele>
        <time>2021-03-30T12:34:34.730Z</time>
      </trkpt>
      <trkpt lat="48.95189" lon="7.53703">
        <ele>221.74958491837</ele>
        <time>2021-03-30T12:34:38.304Z</time>
      </trkpt>
      <trkpt lat="48.95097" lon="7.53675">
        <ele>223.70036356552</ele>
        <time>2021-03-30T12:34:41.909Z</time>
      </trkpt>
      <trkpt lat="48.95095" lon="7.53675">
        <ele>225.6070924222</ele>
        <time>2021-03-30T12:34:45.515Z</time>
      </trkpt>
      <trkpt lat="48.95087" lon="7.53641">
        <ele>227.69990458648</ele>
        <time>2021-03-30T12:34:49.129Z</time>
      </trkpt>
      <trkpt lat="48.95087" lon="7.5364">
        <ele>229.93040378922</ele>
        <time>2021-03-30T12:34:52.743Z</time>
      </trkpt>
      <trkpt lat="48.95061" lon="7.53626">
        <ele>232.32025340337</ele>
        <time>2021-03-30T12:34:56.367Z</time>
      </trkpt>
      <trkpt lat="48.95019" lon="7.53588">
        <ele>234.89755854745</ele>
        <time>2021-03-30T12:35:00.007Z</time>
      </trkpt>
      <trkpt lat="48.9499" lon="7.53548">
        <ele>237.62973936684</ele>
        <time>2021-03-30T12:35:03.660Z</time>
      </trkpt>
      <trkpt lat="48.94971" lon="7.53521">
        <ele>240.52937303107</ele>
        <time>2021-03-30T12:35:07.322Z</time>
      </trkpt>
      <trkpt lat="48.94931" lon="7.53447">
        <ele>243.91769064074</ele>
        <time>2021-03-30T12:35:11.005Z</time>
      </trkpt>
      <trkpt lat="48.94881" lon="7.53326">
        <ele>247.69707069238</ele>
        <time>2021-03-30T12:35:14.719Z</time>
      </trkpt>
      <trkpt lat="48.94881" lon="7.53325">
        <ele>250.85991836286</ele>
        <time>2021-03-30T12:35:18.433Z</time>
      </trkpt>
      <trkpt lat="48.94843" lon="7.53194">
        <ele>255.06162241016</ele>
        <time>2021-03-30T12:35:22.179Z</time>
      </trkpt>
      <trkpt lat="48.94815" lon="7.53132">
        <ele>259.01304121852</ele>
        <time>2021-03-30T12:35:25.941Z</time>
      </trkpt>
      <trkpt lat="48.94799" lon="7.53106">
        <ele>262.56123255709</ele>
        <time>2021-03-30T12:35:29.711Z</time>
      </trkpt>
      <trkpt lat="48.94799" lon="7.53106">
        <ele>268.94458519492</ele>
        <time>2021-03-30T12:35:33.481Z</time>
      </trkpt>
      <trkpt lat="48.94788" lon="7.53097">
        <ele>272.20936744916</ele>
        <time>2021-03-30T12:35:37.255Z</time>
      </trkpt>
      <trkpt lat="48.94785" lon="7.53096">
        <ele>275.3406622623</ele>
        <time>2021-03-30T12:35:41.030Z</time>
      </trkpt>
      <trkpt lat="48.94777" lon="7.53093">
        <ele>278.48042940392</ele>
        <time>2021-03-30T12:35:44.808Z</time>
      </trkpt>
      <trkpt lat="48.94757" lon="7.53111">
        <ele>281.35402671348</ele>
        <time>2021-03-30T12:35:48.594Z</time>
      </trkpt>
      <trkpt lat="48.94732" lon="7.53125">
        <ele>284.26143984703</ele>
        <time>2021-03-30T12:35:52.389Z</time>
      </trkpt>
      <trkpt lat="48.94729" lon="7.53124">
        <ele>287.36250664429</ele>
        <time>2021-03-30T12:35:56.185Z</time>
      </trkpt>
      <trkpt lat="48.94713" lon="7.53117">
        <ele>290.54111258754</ele>
        <time>2021-03-30T12:35:59.986Z</time>
      </trkpt>
      <trkpt lat="48.94692" lon="7.53091">
        <ele>293.98425333458</ele>
        <time>2021-03-30T12:36:03.796Z</time>
      </trkpt>
      <trkpt lat="48.9469" lon="7.53089">
        <ele>297.20947681333</ele>
        <time>2021-03-30T12:36:07.607Z</time>
      </trkpt>
      <trkpt lat="48.94673" lon="7.53051">
        <ele>300.64267834477</ele>
        <time>2021-03-30T12:36:11.428Z</time>
      </trkpt>
      <trkpt lat="48.94652" lon="7.53004">
        <ele>304.16575264082</ele>
        <time>2021-03-30T12:36:15.262Z</time>
      </trkpt>
      <trkpt lat="48.9465" lon="7.52998">
        <ele>307.58440615777</ele>
        <time>2021-03-30T12:36:19.097Z</time>
      </trkpt>
      <trkpt lat="48.94645" lon="7.52971">
        <ele>311.25907815631</ele>
        <time>2021-03-30T12:36:22.938Z</time>
      </trkpt>
      <trkpt lat="48.94627" lon="7.52921">
        <ele>315.04277766147</ele>
        <time>2021-03-30T12:36:26.792Z</time>
      </trkpt>
      <trkpt lat="48.94617" lon="7.5287">
        <ele>319.03482052002</ele>
        <time>2021-03-30T12:36:30.657Z</time>
      </trkpt>
      <trkpt lat="48.94602" lon="7.52822">
        <ele>322.95648837011</ele>
        <time>2021-03-30T12:36:34.534Z</time>
      </trkpt>
      <trkpt lat="48.94593" lon="7.52794">
        <ele>326.70232693357</ele>
        <time>2021-03-30T12:36:38.418Z</time>
      </trkpt>
      <trkpt lat="48.94581" lon="7.52756">
        <ele>330.50413669761</ele>
        <time>2021-03-30T12:36:42.311Z</time>
      </trkpt>
      <trkpt lat="48.94556" lon="7.52711">
        <ele>334.32115751186</ele>
        <time>2021-03-30T12:36:46.217Z</time>
      </trkpt>
      <trkpt lat="48.94529" lon="7.52659">
        <ele>338.13302086262</ele>
        <time>2021-03-30T12:36:50.138Z</time>
      </trkpt>
      <trkpt lat="48.94515" lon="7.5263">
        <ele>341.77982294461</ele>
        <time>2021-03-30T12:36:54.067Z</time>
      </trkpt>
      <trkpt lat="48.94512" lon="7.52622">
        <ele>345.15823296391</ele>
        <time>2021-03-30T12:36:57.998Z</time>
      </trkpt>
      <trkpt lat="48.94501" lon="7.52588">
        <ele>348.72217030909</ele>
        <time>2021-03-30T12:37:01.937Z</time>
      </trkpt>
      <trkpt lat="48.94493" lon="7.52549">
        <ele>351.92554410637</ele>
        <time>2021-03-30T12:37:05.885Z</time>
      </trkpt>
      <trkpt lat="48.94485" lon="7.5253">
        <ele>354.96438475307</ele>
        <time>2021-03-30T12:37:09.838Z</time>
      </trkpt>
      <trkpt lat="48.94484" lon="7.52528">
        <ele>357.84406987364</ele>
        <time>2021-03-30T12:37:13.791Z</time>
      </trkpt>
      <trkpt lat="48.94454" lon="7.52512">
        <ele>360.6487317947</ele>
        <time>2021-03-30T12:37:17.755Z</time>
      </trkpt>
      <trkpt lat="48.94443" lon="7.52376">
        <ele>363.32652558351</ele>
        <time>2021-03-30T12:37:21.749Z</time>
      </trkpt>
      <trkpt lat="48.94439" lon="7.52363">
        <ele>365.88402416335</ele>
        <time>2021-03-30T12:37:25.746Z</time>
      </trkpt>
      <trkpt lat="48.94433" lon="7.52356">
        <ele>368.37786238426</ele>
        <time>2021-03-30T12:37:29.746Z</time>
      </trkpt>
      <trkpt lat="48.94395" lon="7.52336">
        <ele>371.13162764655</ele>
        <time>2021-03-30T12:37:33.759Z</time>
      </trkpt>
      <trkpt lat="48.94366" lon="7.52322">
        <ele>373.55897326306</ele>
        <time>2021-03-30T12:37:37.782Z</time>
      </trkpt>
      <trkpt lat="48.94322" lon="7.52311">
        <ele>375.74822045964</ele>
        <time>2021-03-30T12:37:41.820Z</time>
      </trkpt>
      <trkpt lat="48.94302" lon="7.5231">
        <ele>377.75035827801</ele>
        <time>2021-03-30T12:37:45.865Z</time>
      </trkpt>
      <trkpt lat="48.94293" lon="7.52309">
        <ele>379.60542216669</ele>
        <time>2021-03-30T12:37:49.913Z</time>
      </trkpt>
      <trkpt lat="48.94257" lon="7.52314">
        <ele>381.44628690753</ele>
        <time>2021-03-30T12:37:53.973Z</time>
      </trkpt>
      <trkpt lat="48.94224" lon="7.52321">
        <ele>383.21271839278</ele>
        <time>2021-03-30T12:37:58.044Z</time>
      </trkpt>
      <trkpt lat="48.94198" lon="7.52321">
        <ele>384.78666277216</ele>
        <time>2021-03-30T12:38:02.124Z</time>
      </trkpt>
      <trkpt lat="48.94163" lon="7.52315">
        <ele>386.30413760985</ele>
        <time>2021-03-30T12:38:06.216Z</time>
      </trkpt>
      <trkpt lat="48.94158" lon="7.52313">
        <ele>387.60166822335</ele>
        <time>2021-03-30T12:38:10.309Z</time>
      </trkpt>
      <trkpt lat="48.94143" lon="7.52305">
        <ele>388.79820275952</ele>
        <time>2021-03-30T12:38:14.408Z</time>
      </trkpt>
      <trkpt lat="48.94116" lon="7.52284">
        <ele>389.86283419113</ele>
        <time>2021-03-30T12:38:18.517Z</time>
      </trkpt>
      <trkpt lat="48.94087" lon="7.52254">
        <ele>390.87508428803</ele>
        <time>2021-03-30T12:38:22.637Z</time>
      </trkpt>
      <trkpt lat="48.94085" lon="7.52251">
        <ele>391.80256982983</ele>
        <time>2021-03-30T12:38:26.758Z</time>
      </trkpt>
      <trkpt lat="48.94059" lon="7.52217">
        <ele>392.91324107769</ele>
        <time>2021-03-30T12:38:30.891Z</time>
      </trkpt>
      <trkpt lat="48.9403" lon="7.52167">
        <ele>393.96890084164</ele>
        <time>2021-03-30T12:38:35.038Z</time>
      </trkpt>
      <trkpt lat="48.94003" lon="7.52108">
        <ele>394.82951971263</ele>
        <time>2021-03-30T12:38:39.201Z</time>
      </trkpt>
      <trkpt lat="48.94" lon="7.52098">
        <ele>395.44087655466</ele>
        <time>2021-03-30T12:38:43.367Z</time>
      </trkpt>
      <trkpt lat="48.93997" lon="7.5209">
        <ele>395.96970760189</ele>
        <time>2021-03-30T12:38:47.535Z</time>
      </trkpt>
      <trkpt lat="48.93996" lon="7.52061">
        <ele>396.31729525588</ele>
        <time>2021-03-30T12:38:51.709Z</time>
      </trkpt>
      <trkpt lat="48.93995" lon="7.51971">
        <ele>396.40364830983</ele>
        <time>2021-03-30T12:38:55.903Z</time>
      </trkpt>
      <trkpt lat="48.93995" lon="7.51876">
        <ele>396.24197230182</ele>
        <time>2021-03-30T12:39:00.118Z</time>
      </trkpt>
      <trkpt lat="48.94004" lon="7.5185">
        <ele>396.51944659881</ele>
        <time>2021-03-30T12:39:04.339Z</time>
      </trkpt>
      <trkpt lat="48.94028" lon="7.5179">
        <ele>396.7758476643</ele>
        <time>2021-03-30T12:39:08.576Z</time>
      </trkpt>
      <trkpt lat="48.94037" lon="7.51769">
        <ele>396.80955995014</ele>
        <time>2021-03-30T12:39:12.818Z</time>
      </trkpt>
      <trkpt lat="48.94054" lon="7.51721">
        <ele>396.99107738686</ele>
        <time>2021-03-30T12:39:17.072Z</time>
      </trkpt>
      <trkpt lat="48.94112" lon="7.51625">
        <ele>397.6427947224</ele>
        <time>2021-03-30T12:39:21.355Z</time>
      </trkpt>
      <trkpt lat="48.94191" lon="7.51489">
        <ele>397.95002323068</ele>
        <time>2021-03-30T12:39:25.678Z</time>
      </trkpt>
      <trkpt lat="48.9422" lon="7.51445">
        <ele>397.40538374395</ele>
        <time>2021-03-30T12:39:30.014Z</time>
      </trkpt>
      <trkpt lat="48.94239" lon="7.51426">
        <ele>397.29533880492</ele>
        <time>2021-03-30T12:39:34.358Z</time>
      </trkpt>
      <trkpt lat="48.94273" lon="7.51407">
        <ele>396.9477563953</ele>
        <time>2021-03-30T12:39:38.714Z</time>
      </trkpt>
      <trkpt lat="48.9429" lon="7.51395">
        <ele>396.25078740581</ele>
        <time>2021-03-30T12:39:43.076Z</time>
      </trkpt>
      <trkpt lat="48.94303" lon="7.51376">
        <ele>395.49523747707</ele>
        <time>2021-03-30T12:39:47.444Z</time>
      </trkpt>
      <trkpt lat="48.94323" lon="7.51339">
        <ele>394.68322034352</ele>
        <time>2021-03-30T12:39:51.823Z</time>
      </trkpt>
      <trkpt lat="48.94335" lon="7.51309">
        <ele>393.59270984537</ele>
        <time>2021-03-30T12:39:56.209Z</time>
      </trkpt>
      <trkpt lat="48.94344" lon="7.51287">
        <ele>392.48687640934</ele>
        <time>2021-03-30T12:40:00.601Z</time>
      </trkpt>
      <trkpt lat="48.94345" lon="7.51285">
        <ele>391.28717074419</ele>
        <time>2021-03-30T12:40:04.994Z</time>
      </trkpt>
      <trkpt lat="48.94351" lon="7.51246">
        <ele>389.92470714455</ele>
        <time>2021-03-30T12:40:09.396Z</time>
      </trkpt>
      <trkpt lat="48.94352" lon="7.51222">
        <ele>388.49881573704</ele>
        <time>2021-03-30T12:40:13.803Z</time>
      </trkpt>
      <trkpt lat="48.94348" lon="7.51199">
        <ele>386.96454458632</ele>
        <time>2021-03-30T12:40:18.215Z</time>
      </trkpt>
      <trkpt lat="48.9434" lon="7.51171">
        <ele>385.32146571168</ele>
        <time>2021-03-30T12:40:22.634Z</time>
      </trkpt>
      <trkpt lat="48.94332" lon="7.51144">
        <ele>383.38437460259</ele>
        <time>2021-03-30T12:40:27.059Z</time>
      </trkpt>
      <trkpt lat="48.94324" lon="7.51143">
        <ele>381.45144522156</ele>
        <time>2021-03-30T12:40:31.487Z</time>
      </trkpt>
      <trkpt lat="48.9431" lon="7.51135">
        <ele>379.39131809488</ele>
        <time>2021-03-30T12:40:35.920Z</time>
      </trkpt>
      <trkpt lat="48.9429" lon="7.51115">
        <ele>377.2006249479</ele>
        <time>2021-03-30T12:40:40.361Z</time>
      </trkpt>
      <trkpt lat="48.94225" lon="7.51051">
        <ele>374.02878217374</ele>
        <time>2021-03-30T12:40:44.828Z</time>
      </trkpt>
      <trkpt lat="48.9421" lon="7.51032">
        <ele>371.46281771818</ele>
        <time>2021-03-30T12:40:49.301Z</time>
      </trkpt>
      <trkpt lat="48.94203" lon="7.51012">
        <ele>368.99310813193</ele>
        <time>2021-03-30T12:40:53.779Z</time>
      </trkpt>
      <trkpt lat="48.942" lon="7.50981">
        <ele>366.64725338734</ele>
        <time>2021-03-30T12:40:58.264Z</time>
      </trkpt>
      <trkpt lat="48.942" lon="7.50949">
        <ele>364.38690951568</ele>
        <time>2021-03-30T12:41:02.756Z</time>
      </trkpt>
      <trkpt lat="48.94205" lon="7.50911">
        <ele>362.31144493035</ele>
        <time>2021-03-30T12:41:07.257Z</time>
      </trkpt>
      <trkpt lat="48.9421" lon="7.50881">
        <ele>360.4182114848</ele>
        <time>2021-03-30T12:41:11.765Z</time>
      </trkpt>
      <trkpt lat="48.94219" lon="7.50815">
        <ele>358.45689944241</ele>
        <time>2021-03-30T12:41:16.287Z</time>
      </trkpt>
      <trkpt lat="48.94217" lon="7.50805">
        <ele>356.61741868809</ele>
        <time>2021-03-30T12:41:20.812Z</time>
      </trkpt>
      <trkpt lat="48.94223" lon="7.50788">
        <ele>354.93478587568</ele>
        <time>2021-03-30T12:41:25.341Z</time>
      </trkpt>
      <trkpt lat="48.94238" lon="7.50753">
        <ele>353.35470041501</ele>
        <time>2021-03-30T12:41:29.879Z</time>
      </trkpt>
      <trkpt lat="48.94246" lon="7.50728">
        <ele>351.82805127565</ele>
        <time>2021-03-30T12:41:34.423Z</time>
      </trkpt>
      <trkpt lat="48.94249" lon="7.50705">
        <ele>350.40921901692</ele>
        <time>2021-03-30T12:41:38.972Z</time>
      </trkpt>
      <trkpt lat="48.94248" lon="7.50677">
        <ele>348.99978304953</ele>
        <time>2021-03-30T12:41:43.527Z</time>
      </trkpt>
      <trkpt lat="48.94234" lon="7.50638">
        <ele>347.74920906542</ele>
        <time>2021-03-30T12:41:48.092Z</time>
      </trkpt>
      <trkpt lat="48.94213" lon="7.50586">
        <ele>346.55332106024</ele>
        <time>2021-03-30T12:41:52.671Z</time>
      </trkpt>
      <trkpt lat="48.94207" lon="7.50578">
        <ele>345.49518111433</ele>
        <time>2021-03-30T12:41:57.252Z</time>
      </trkpt>
      <trkpt lat="48.94178" lon="7.50574">
        <ele>344.23260851946</ele>
        <time>2021-03-30T12:42:01.843Z</time>
      </trkpt>
      <trkpt lat="48.9417" lon="7.5057">
        <ele>343.23005530028</ele>
        <time>2021-03-30T12:42:06.437Z</time>
      </trkpt>
      <trkpt lat="48.94159" lon="7.5056">
        <ele>342.32849491912</ele>
        <time>2021-03-30T12:42:11.035Z</time>
      </trkpt>
      <trkpt lat="48.94142" lon="7.50541">
        <ele>341.49671231434</ele>
        <time>2021-03-30T12:42:15.640Z</time>
      </trkpt>
      <trkpt lat="48.94135" lon="7.50539">
        <ele>340.51295236723</ele>
        <time>2021-03-30T12:42:20.248Z</time>
      </trkpt>
      <trkpt lat="48.94124" lon="7.50539">
        <ele>339.44240472792</ele>
        <time>2021-03-30T12:42:24.859Z</time>
      </trkpt>
      <trkpt lat="48.94101" lon="7.50547">
        <ele>338.13000072012</ele>
        <time>2021-03-30T12:42:29.478Z</time>
      </trkpt>
      <trkpt lat="48.94087" lon="7.50548">
        <ele>336.97840707212</ele>
        <time>2021-03-30T12:42:34.102Z</time>
      </trkpt>
      <trkpt lat="48.94071" lon="7.50541">
        <ele>335.85539308346</ele>
        <time>2021-03-30T12:42:38.731Z</time>
      </trkpt>
      <trkpt lat="48.94046" lon="7.50523">
        <ele>334.75464276721</ele>
        <time>2021-03-30T12:42:43.369Z</time>
      </trkpt>
      <trkpt lat="48.94037" lon="7.50519">
        <ele>333.46948055895</ele>
        <time>2021-03-30T12:42:48.011Z</time>
      </trkpt>
      <trkpt lat="48.94018" lon="7.50521">
        <ele>331.9407928186</ele>
        <time>2021-03-30T12:42:52.659Z</time>
      </trkpt>
      <trkpt lat="48.94007" lon="7.5052">
        <ele>330.30148316128</ele>
        <time>2021-03-30T12:42:57.311Z</time>
      </trkpt>
      <trkpt lat="48.93991" lon="7.50516">
        <ele>328.52784985873</ele>
        <time>2021-03-30T12:43:01.968Z</time>
      </trkpt>
      <trkpt lat="48.93978" lon="7.50516">
        <ele>326.59456351094</ele>
        <time>2021-03-30T12:43:06.629Z</time>
      </trkpt>
      <trkpt lat="48.93957" lon="7.50518">
        <ele>324.42075725937</ele>
        <time>2021-03-30T12:43:11.297Z</time>
      </trkpt>
      <trkpt lat="48.93939" lon="7.50528">
        <ele>322.04648348711</ele>
        <time>2021-03-30T12:43:15.972Z</time>
      </trkpt>
      <trkpt lat="48.93924" lon="7.50531">
        <ele>319.64727019023</ele>
        <time>2021-03-30T12:43:20.652Z</time>
      </trkpt>
      <trkpt lat="48.93914" lon="7.5053">
        <ele>317.21924309307</ele>
        <time>2021-03-30T12:43:25.335Z</time>
      </trkpt>
      <trkpt lat="48.93904" lon="7.50526">
        <ele>314.68382784801</ele>
        <time>2021-03-30T12:43:30.022Z</time>
      </trkpt>
      <trkpt lat="48.93888" lon="7.50511">
        <ele>312.04329832101</ele>
        <time>2021-03-30T12:43:34.715Z</time>
      </trkpt>
      <trkpt lat="48.93873" lon="7.50496">
        <ele>309.25973853058</ele>
        <time>2021-03-30T12:43:39.414Z</time>
      </trkpt>
      <trkpt lat="48.93847" lon="7.5046">
        <ele>306.2125528745</ele>
        <time>2021-03-30T12:43:44.125Z</time>
      </trkpt>
      <trkpt lat="48.93847" lon="7.5046">
        <ele>299.89022365021</ele>
        <time>2021-03-30T12:43:48.836Z</time>
      </trkpt>
      <trkpt lat="48.93811" lon="7.50397">
        <ele>296.25184919856</ele>
        <time>2021-03-30T12:43:53.565Z</time>
      </trkpt>
      <trkpt lat="48.93796" lon="7.50366">
        <ele>292.58793043866</ele>
        <time>2021-03-30T12:43:58.303Z</time>
      </trkpt>
      <trkpt lat="48.93763" lon="7.50344">
        <ele>288.49510586772</ele>
        <time>2021-03-30T12:44:03.052Z</time>
      </trkpt>
      <trkpt lat="48.9375" lon="7.50336">
        <ele>284.56423943148</ele>
        <time>2021-03-30T12:44:07.806Z</time>
      </trkpt>
      <trkpt lat="48.93729" lon="7.50324">
        <ele>280.45879869422</ele>
        <time>2021-03-30T12:44:12.568Z</time>
      </trkpt>
      <trkpt lat="48.93699" lon="7.50301">
        <ele>276.23066703785</ele>
        <time>2021-03-30T12:44:17.341Z</time>
      </trkpt>
      <trkpt lat="48.93654" lon="7.50273">
        <ele>271.68447127831</ele>
        <time>2021-03-30T12:44:22.130Z</time>
      </trkpt>
      <trkpt lat="48.9361" lon="7.5025">
        <ele>267.06395019722</ele>
        <time>2021-03-30T12:44:26.935Z</time>
      </trkpt>
      <trkpt lat="48.93607" lon="7.50248">
        <ele>262.90986296487</ele>
        <time>2021-03-30T12:44:31.741Z</time>
      </trkpt>
      <trkpt lat="48.93538" lon="7.50154">
        <ele>258.12417615654</ele>
        <time>2021-03-30T12:44:36.578Z</time>
      </trkpt>
      <trkpt lat="48.93532" lon="7.50147">
        <ele>254.00145220482</ele>
        <time>2021-03-30T12:44:41.417Z</time>
      </trkpt>
      <trkpt lat="48.93493" lon="7.50096">
        <ele>249.68617319134</ele>
        <time>2021-03-30T12:44:46.273Z</time>
      </trkpt>
      <trkpt lat="48.93492" lon="7.50094">
        <ele>245.79601520926</ele>
        <time>2021-03-30T12:44:51.130Z</time>
      </trkpt>
      <trkpt lat="48.93437" lon="7.49997">
        <ele>241.59573428868</ele>
        <time>2021-03-30T12:44:56.015Z</time>
      </trkpt>
      <trkpt lat="48.93436" lon="7.49997">
        <ele>237.95571786671</ele>
        <time>2021-03-30T12:45:00.900Z</time>
      </trkpt>
      <trkpt lat="48.93428" lon="7.49975">
        <ele>234.38625569947</ele>
        <time>2021-03-30T12:45:05.791Z</time>
      </trkpt>
      <trkpt lat="48.93419" lon="7.49974">
        <ele>230.95398393568</ele>
        <time>2021-03-30T12:45:10.685Z</time>
      </trkpt>
      <trkpt lat="48.93415" lon="7.4997">
        <ele>227.74829679011</ele>
        <time>2021-03-30T12:45:15.580Z</time>
      </trkpt>
      <trkpt lat="48.93408" lon="7.49963">
        <ele>224.68821715534</ele>
        <time>2021-03-30T12:45:20.478Z</time>
      </trkpt>
      <trkpt lat="48.93386" lon="7.49931">
        <ele>221.69190929958</ele>
        <time>2021-03-30T12:45:25.387Z</time>
      </trkpt>
      <trkpt lat="48.93359" lon="7.49894">
        <ele>218.78030695631</ele>
        <time>2021-03-30T12:45:30.308Z</time>
      </trkpt>
      <trkpt lat="48.93345" lon="7.49862">
        <ele>216.28409706818</ele>
        <time>2021-03-30T12:45:35.237Z</time>
      </trkpt>
      <trkpt lat="48.93337" lon="7.49844">
        <ele>214.08925414782</ele>
        <time>2021-03-30T12:45:40.171Z</time>
      </trkpt>
      <trkpt lat="48.93333" lon="7.4981">
        <ele>212.15961930169</ele>
        <time>2021-03-30T12:45:45.112Z</time>
      </trkpt>
      <trkpt lat="48.9332" lon="7.49744">
        <ele>210.45701890037</ele>
        <time>2021-03-30T12:45:50.069Z</time>
      </trkpt>
      <trkpt lat="48.93312" lon="7.49691">
        <ele>209.01169243086</ele>
        <time>2021-03-30T12:45:55.037Z</time>
      </trkpt>
      <trkpt lat="48.9331" lon="7.49659">
        <ele>207.82215273419</ele>
        <time>2021-03-30T12:46:00.012Z</time>
      </trkpt>
      <trkpt lat="48.9331" lon="7.49641">
        <ele>206.91886062362</ele>
        <time>2021-03-30T12:46:04.992Z</time>
      </trkpt>
      <trkpt lat="48.93312" lon="7.49618">
        <ele>206.26879304717</ele>
        <time>2021-03-30T12:46:09.977Z</time>
      </trkpt>
      <trkpt lat="48.93317" lon="7.49582">
        <ele>205.79700946886</ele>
        <time>2021-03-30T12:46:14.970Z</time>
      </trkpt>
      <trkpt lat="48.93324" lon="7.4955">
        <ele>205.75858242848</ele>
        <time>2021-03-30T12:46:19.970Z</time>
      </trkpt>
      <trkpt lat="48.93332" lon="7.4951">
        <ele>205.72707093099</ele>
        <time>2021-03-30T12:46:24.979Z</time>
      </trkpt>
      <trkpt lat="48.93333" lon="7.49502">
        <ele>206.12509958534</ele>
        <time>2021-03-30T12:46:29.990Z</time>
      </trkpt>
      <trkpt lat="48.93333" lon="7.49491">
        <ele>206.85994648664</ele>
        <time>2021-03-30T12:46:35.004Z</time>
      </trkpt>
      <trkpt lat="48.93326" lon="7.49468">
        <ele>207.93763367598</ele>
        <time>2021-03-30T12:46:40.023Z</time>
      </trkpt>
      <trkpt lat="48.93315" lon="7.49445">
        <ele>209.19024083134</ele>
        <time>2021-03-30T12:46:45.048Z</time>
      </trkpt>
      <trkpt lat="48.93309" lon="7.49431">
        <ele>210.64139250833</ele>
        <time>2021-03-30T12:46:50.077Z</time>
      </trkpt>
      <trkpt lat="48.93289" lon="7.49453">
        <ele>212.35656585178</ele>
        <time>2021-03-30T12:46:55.114Z</time>
      </trkpt>
      <trkpt lat="48.93288" lon="7.49454">
        <ele>214.16624786899</ele>
        <time>2021-03-30T12:47:00.151Z</time>
      </trkpt>
      <trkpt lat="48.93291" lon="7.49406">
        <ele>216.27748061407</ele>
        <time>2021-03-30T12:47:05.199Z</time>
      </trkpt>
      <trkpt lat="48.93291" lon="7.49387">
        <ele>218.52995057277</ele>
        <time>2021-03-30T12:47:10.251Z</time>
      </trkpt>
      <trkpt lat="48.9329" lon="7.49363">
        <ele>220.96154319482</ele>
        <time>2021-03-30T12:47:15.308Z</time>
      </trkpt>
      <trkpt lat="48.9329" lon="7.49358">
        <ele>223.4131925216</ele>
        <time>2021-03-30T12:47:20.367Z</time>
      </trkpt>
      <trkpt lat="48.93286" lon="7.49341">
        <ele>226.06290331372</ele>
        <time>2021-03-30T12:47:25.430Z</time>
      </trkpt>
      <trkpt lat="48.93275" lon="7.49293">
        <ele>228.8601339725</ele>
        <time>2021-03-30T12:47:30.504Z</time>
      </trkpt>
      <trkpt lat="48.93273" lon="7.49289">
        <ele>231.54400787007</ele>
        <time>2021-03-30T12:47:35.579Z</time>
      </trkpt>
      <trkpt lat="48.93251" lon="7.49241">
        <ele>234.47315251289</ele>
        <time>2021-03-30T12:47:40.667Z</time>
      </trkpt>
      <trkpt lat="48.93152" lon="7.49068">
        <ele>237.79694681762</ele>
        <time>2021-03-30T12:47:45.805Z</time>
      </trkpt>
      <trkpt lat="48.93135" lon="7.49038">
        <ele>240.48362108859</ele>
        <time>2021-03-30T12:47:50.952Z</time>
      </trkpt>
      <trkpt lat="48.93123" lon="7.49013">
        <ele>243.05827215878</ele>
        <time>2021-03-30T12:47:56.106Z</time>
      </trkpt>
      <trkpt lat="48.93116" lon="7.48996">
        <ele>245.5172940119</ele>
        <time>2021-03-30T12:48:01.264Z</time>
      </trkpt>
      <trkpt lat="48.93102" lon="7.48958">
        <ele>247.97712862694</ele>
        <time>2021-03-30T12:48:06.432Z</time>
      </trkpt>
      <trkpt lat="48.93076" lon="7.489">
        <ele>250.4076142994</ele>
        <time>2021-03-30T12:48:11.615Z</time>
      </trkpt>
      <trkpt lat="48.93066" lon="7.48876">
        <ele>252.46559734701</ele>
        <time>2021-03-30T12:48:16.804Z</time>
      </trkpt>
      <trkpt lat="48.93065" lon="7.48875">
        <ele>254.32792785057</ele>
        <time>2021-03-30T12:48:21.994Z</time>
      </trkpt>
      <trkpt lat="48.93051" lon="7.48851">
        <ele>256.12275065545</ele>
        <time>2021-03-30T12:48:27.191Z</time>
      </trkpt>
      <trkpt lat="48.93038" lon="7.4883">
        <ele>257.73594045882</ele>
        <time>2021-03-30T12:48:32.394Z</time>
      </trkpt>
      <trkpt lat="48.93037" lon="7.48829">
        <ele>259.09594900961</ele>
        <time>2021-03-30T12:48:37.597Z</time>
      </trkpt>
      <trkpt lat="48.93025" lon="7.488">
        <ele>260.28981448166</ele>
        <time>2021-03-30T12:48:42.808Z</time>
      </trkpt>
      <trkpt lat="48.93002" lon="7.48747">
        <ele>261.28540148031</ele>
        <time>2021-03-30T12:48:48.033Z</time>
      </trkpt>
      <trkpt lat="48.92989" lon="7.48709">
        <ele>262.15871885967</ele>
        <time>2021-03-30T12:48:53.267Z</time>
      </trkpt>
      <trkpt lat="48.92975" lon="7.48667">
        <ele>262.93941858167</ele>
        <time>2021-03-30T12:48:58.512Z</time>
      </trkpt>
      <trkpt lat="48.92975" lon="7.48666">
        <ele>263.58218215595</ele>
        <time>2021-03-30T12:49:03.757Z</time>
      </trkpt>
      <trkpt lat="48.92964" lon="7.48645">
        <ele>264.10497425739</ele>
        <time>2021-03-30T12:49:09.008Z</time>
      </trkpt>
      <trkpt lat="48.92953" lon="7.48632">
        <ele>264.56195791229</ele>
        <time>2021-03-30T12:49:14.263Z</time>
      </trkpt>
      <trkpt lat="48.92941" lon="7.48625">
        <ele>264.95816074029</ele>
        <time>2021-03-30T12:49:19.523Z</time>
      </trkpt>
      <trkpt lat="48.92936" lon="7.48625">
        <ele>265.21793293987</ele>
        <time>2021-03-30T12:49:24.784Z</time>
      </trkpt>
      <trkpt lat="48.92925" lon="7.48624">
        <ele>265.4048252785</ele>
        <time>2021-03-30T12:49:30.049Z</time>
      </trkpt>
      <trkpt lat="48.92908" lon="7.48628">
        <ele>265.56075730499</ele>
        <time>2021-03-30T12:49:35.320Z</time>
      </trkpt>
      <trkpt lat="48.92872" lon="7.4864">
        <ele>265.76362687298</ele>
        <time>2021-03-30T12:49:40.603Z</time>
      </trkpt>
      <trkpt lat="48.92856" lon="7.48655">
        <ele>265.91266053673</ele>
        <time>2021-03-30T12:49:45.892Z</time>
      </trkpt>
      <trkpt lat="48.92845" lon="7.48649">
        <ele>265.89914422468</ele>
        <time>2021-03-30T12:49:51.185Z</time>
      </trkpt>
      <trkpt lat="48.92795" lon="7.48628">
        <ele>265.83791448879</ele>
        <time>2021-03-30T12:49:56.496Z</time>
      </trkpt>
      <trkpt lat="48.92746" lon="7.48609">
        <ele>265.91836306711</ele>
        <time>2021-03-30T12:50:01.823Z</time>
      </trkpt>
      <trkpt lat="48.92743" lon="7.48608">
        <ele>265.96117816259</ele>
        <time>2021-03-30T12:50:07.151Z</time>
      </trkpt>
      <trkpt lat="48.92703" lon="7.48599">
        <ele>266.17266434959</ele>
        <time>2021-03-30T12:50:12.493Z</time>
      </trkpt>
      <trkpt lat="48.92687" lon="7.48596">
        <ele>266.2896589368</ele>
        <time>2021-03-30T12:50:17.840Z</time>
      </trkpt>
      <trkpt lat="48.92686" lon="7.48596">
        <ele>266.41467525822</ele>
        <time>2021-03-30T12:50:23.188Z</time>
      </trkpt>
      <trkpt lat="48.9268" lon="7.48596">
        <ele>266.61879391432</ele>
        <time>2021-03-30T12:50:28.538Z</time>
      </trkpt>
      <trkpt lat="48.92672" lon="7.48596">
        <ele>266.90855451186</ele>
        <time>2021-03-30T12:50:33.890Z</time>
      </trkpt>
      <trkpt lat="48.92664" lon="7.48593">
        <ele>267.30144416577</ele>
        <time>2021-03-30T12:50:39.245Z</time>
      </trkpt>
      <trkpt lat="48.9265" lon="7.48593">
        <ele>267.82751846181</ele>
        <time>2021-03-30T12:50:44.605Z</time>
      </trkpt>
      <trkpt lat="48.92618" lon="7.48603">
        <ele>268.52741165944</ele>
        <time>2021-03-30T12:50:49.975Z</time>
      </trkpt>
      <trkpt lat="48.92581" lon="7.48612">
        <ele>269.38906746297</ele>
        <time>2021-03-30T12:50:55.358Z</time>
      </trkpt>
      <trkpt lat="48.92552" lon="7.48629">
        <ele>270.46133529212</ele>
        <time>2021-03-30T12:51:00.751Z</time>
      </trkpt>
      <trkpt lat="48.92529" lon="7.48639">
        <ele>271.66405362464</ele>
        <time>2021-03-30T12:51:06.152Z</time>
      </trkpt>
      <trkpt lat="48.92516" lon="7.4864">
        <ele>273.06730632303</ele>
        <time>2021-03-30T12:51:11.558Z</time>
      </trkpt>
      <trkpt lat="48.92509" lon="7.48638">
        <ele>274.54408773133</ele>
        <time>2021-03-30T12:51:16.966Z</time>
      </trkpt>
      <trkpt lat="48.92503" lon="7.48636">
        <ele>276.15271648594</ele>
        <time>2021-03-30T12:51:22.376Z</time>
      </trkpt>
      <trkpt lat="48.92502" lon="7.48637">
        <ele>277.83587217654</ele>
        <time>2021-03-30T12:51:27.787Z</time>
      </trkpt>
      <trkpt lat="48.92499" lon="7.48641">
        <ele>279.75453764933</ele>
        <time>2021-03-30T12:51:33.199Z</time>
      </trkpt>
      <trkpt lat="48.92492" lon="7.48646">
        <ele>281.92905303948</ele>
        <time>2021-03-30T12:51:38.614Z</time>
      </trkpt>
      <trkpt lat="48.92478" lon="7.48651">
        <ele>284.36100440534</ele>
        <time>2021-03-30T12:51:44.033Z</time>
      </trkpt>
      <trkpt lat="48.92465" lon="7.48658">
        <ele>286.84562496277</ele>
        <time>2021-03-30T12:51:49.457Z</time>
      </trkpt>
      <trkpt lat="48.92455" lon="7.48655">
        <ele>289.26882264287</ele>
        <time>2021-03-30T12:51:54.884Z</time>
      </trkpt>
      <trkpt lat="48.92454" lon="7.48653">
        <ele>291.6214958193</ele>
        <time>2021-03-30T12:52:00.312Z</time>
      </trkpt>
      <trkpt lat="48.9245" lon="7.48649">
        <ele>294.18581811939</ele>
        <time>2021-03-30T12:52:05.742Z</time>
      </trkpt>
      <trkpt lat="48.92442" lon="7.48622">
        <ele>296.84889043893</ele>
        <time>2021-03-30T12:52:11.178Z</time>
      </trkpt>
      <trkpt lat="48.92433" lon="7.48604">
        <ele>299.7883979681</ele>
        <time>2021-03-30T12:52:16.619Z</time>
      </trkpt>
      <trkpt lat="48.92422" lon="7.48587">
        <ele>302.90608071645</ele>
        <time>2021-03-30T12:52:22.065Z</time>
      </trkpt>
      <trkpt lat="48.92421" lon="7.48585">
        <ele>305.95284329376</ele>
        <time>2021-03-30T12:52:27.512Z</time>
      </trkpt>
      <trkpt lat="48.92408" lon="7.48558">
        <ele>309.3163644346</ele>
        <time>2021-03-30T12:52:32.966Z</time>
      </trkpt>
      <trkpt lat="48.92362" lon="7.48465">
        <ele>313.10562363677</ele>
        <time>2021-03-30T12:52:38.446Z</time>
      </trkpt>
      <trkpt lat="48.92333" lon="7.48399">
        <ele>316.09455016081</ele>
        <time>2021-03-30T12:52:43.943Z</time>
      </trkpt>
      <trkpt lat="48.92314" lon="7.48361">
        <ele>319.00222598428</ele>
        <time>2021-03-30T12:52:49.451Z</time>
      </trkpt>
      <trkpt lat="48.92294" lon="7.48348">
        <ele>321.77413806416</ele>
        <time>2021-03-30T12:52:54.966Z</time>
      </trkpt>
      <trkpt lat="48.92288" lon="7.48337">
        <ele>324.08810313461</ele>
        <time>2021-03-30T12:53:00.484Z</time>
      </trkpt>
      <trkpt lat="48.92283" lon="7.48319">
        <ele>326.20586788134</ele>
        <time>2021-03-30T12:53:06.006Z</time>
      </trkpt>
      <trkpt lat="48.92277" lon="7.48304">
        <ele>328.22078762502</ele>
        <time>2021-03-30T12:53:11.532Z</time>
      </trkpt>
      <trkpt lat="48.92263" lon="7.48285">
        <ele>330.11217935935</ele>
        <time>2021-03-30T12:53:17.065Z</time>
      </trkpt>
      <trkpt lat="48.92258" lon="7.48268">
        <ele>331.7411601988</ele>
        <time>2021-03-30T12:53:22.602Z</time>
      </trkpt>
      <trkpt lat="48.92253" lon="7.48227">
        <ele>333.22813934753</ele>
        <time>2021-03-30T12:53:28.148Z</time>
      </trkpt>
      <trkpt lat="48.92245" lon="7.48189">
        <ele>334.69321491835</ele>
        <time>2021-03-30T12:53:33.703Z</time>
      </trkpt>
      <trkpt lat="48.9224" lon="7.48175">
        <ele>336.0853677161</ele>
        <time>2021-03-30T12:53:39.261Z</time>
      </trkpt>
      <trkpt lat="48.92236" lon="7.48164">
        <ele>337.37722891818</ele>
        <time>2021-03-30T12:53:44.822Z</time>
      </trkpt>
      <trkpt lat="48.92225" lon="7.48149">
        <ele>338.61987129177</ele>
        <time>2021-03-30T12:53:50.388Z</time>
      </trkpt>
      <trkpt lat="48.92215" lon="7.48156">
        <ele>339.68420225383</ele>
        <time>2021-03-30T12:53:55.958Z</time>
      </trkpt>
      <trkpt lat="48.9219" lon="7.48171">
        <ele>340.63408374429</ele>
        <time>2021-03-30T12:54:01.537Z</time>
      </trkpt>
      <trkpt lat="48.92186" lon="7.48174">
        <ele>340.99767771311</ele>
        <time>2021-03-30T12:54:07.117Z</time>
      </trkpt>
      <trkpt lat="48.92167" lon="7.48188">
        <ele>341.14971275454</ele>
        <time>2021-03-30T12:54:12.704Z</time>
      </trkpt>
      <trkpt lat="48.92169" lon="7.4817">
        <ele>341.11408006432</ele>
        <time>2021-03-30T12:54:18.295Z</time>
      </trkpt>
      <trkpt lat="48.92155" lon="7.48173">
        <ele>340.89385139277</ele>
        <time>2021-03-30T12:54:23.891Z</time>
      </trkpt>
      <trkpt lat="48.92119" lon="7.48182">
        <ele>340.45350560553</ele>
        <time>2021-03-30T12:54:29.499Z</time>
      </trkpt>
      <trkpt lat="48.9212" lon="7.48188">
        <ele>339.9814487405</ele>
        <time>2021-03-30T12:54:35.108Z</time>
      </trkpt>
      <trkpt lat="48.92105" lon="7.48189">
        <ele>339.24078980272</ele>
        <time>2021-03-30T12:54:40.722Z</time>
      </trkpt>
      <trkpt lat="48.92085" lon="7.48194">
        <ele>338.34106870178</ele>
        <time>2021-03-30T12:54:46.343Z</time>
      </trkpt>
    </trkseg>
  </trk>
</gpx>